SondeTracker

Meteorological Radiosondes Database

Operations

Sounding was ended - last measurement: 2022-12-06 01:20:04z

MAP
About Radiosonde

Number: S5010182

Launch Site: Santander (ES)

Type: RS41

AUX: NO

Frequency: 401.500 MHz

Max Speed: 78 km/h at 12947 m

Average Speed: 36.22 km/h

Max Altitude: 27709 m

Average Ascent Speed: 3.91 m/s

Average Descent Speed: 37.66 m/s

Status: LOST

Status Changes
Launch Site Type AUX Frequency Status Finder Landing Point Description Changes made by
MHz LOST 0, 0 AUTO STATUS: Probably lost in the water [BOT]AUTO-STATUS - 2022-12-06 02:21:25z
APRS Statistics

Received Frames: 604

First Frame [UTC]: 2022-12-05 23:18:39z

Last Frame [UTC]: 2022-12-06 01:20:04z

Receivers: EA1EF-14, EA1JAY-16, EA4EKH-11

Flight Time: 02:01:25 h

Distance From First Measurement: 52.79 km

Nearest City: Castro-Urdiales (ES) [8.23 km]

Nearest Hunter: EA2 [14.99 km]

Ground Altitude: -123 m

Distance from QTH: 0.00 km

APRS Data
Receiver Number Date/Time [UTC] φ λ Course [°] Speed [km/h] Altitude [m] Description
EA1EF-14S50101822022-12-06 01:20:0443.4361-3.1421260678540Clb=-22.0m/s t=-43.3C 401.50MHz Type=RS41-SG meteocampoo.es - http://radiosondy.info
EA1EF-14S50101822022-12-06 01:19:4543.4346-3.1457665658936Clb=-22.8m/s t=-46.6C 401.50MHz Type=RS41-SG meteocampoo.es - http://radiosondy.info
EA1EF-14S50101822022-12-06 01:19:2943.4336-3.1489571439295Clb=-22.8m/s t=-49.0C 401.50MHz Type=RS41-SG meteocampoo.es - http://radiosondy.info
EA1EF-14S50101822022-12-06 01:19:1443.4334-3.15114113309660Clb=-23.6m/s t=-50.5C 401.50MHz Type=RS41-SG meteocampoo.es - http://radiosondy.info
EA1EF-14S50101822022-12-06 01:18:5843.4341-3.152561243010031Clb=-24.1m/s t=-52.2C 401.50MHz Type=RS41-SG meteocampoo.es - http://radiosondy.info
EA4EKH-11S50101822022-12-06 01:18:4643.4345-3.153481172210315Clb=-24.6m/s t=-53.9C h=11.2% p=-1.0hPa 401.501 MHz Type=RS41-SG ser=S5010182 Radiosonde
EA1EF-14S50101822022-12-06 01:18:4143.4347-3.153791193110412Clb=-24.4m/s t=-55.0C 401.50MHz Type=RS41-SG meteocampoo.es - http://radiosondy.info
EA1EF-14S50101822022-12-06 01:18:2543.4351-3.155381154310800Clb=-24.6m/s t=-57.1C 401.50MHz Type=RS41-SG meteocampoo.es - http://radiosondy.info
EA4EKH-11S50101822022-12-06 01:18:1543.4356-3.15681204111073Clb=-25.3m/s t=-57.7C h=9.0% p=-1.0hPa 401.501 MHz Type=RS41-SG ser=S5010182 Radiosonde
EA1EF-14S50101822022-12-06 01:18:1043.4359-3.157441254411198Clb=-25.5m/s t=-59.0C 401.50MHz Type=RS41-SG meteocampoo.es - http://radiosondy.info
EA1EF-14S50101822022-12-06 01:17:5243.437-3.160181065411712Clb=-26.3m/s t=-57.8C 401.50MHz Type=RS41-SG meteocampoo.es - http://radiosondy.info
EA4EKH-11S50101822022-12-06 01:17:4643.4372-3.161241135911871Clb=-27.1m/s t=-57.6C h=4.3% p=-1.0hPa 401.501 MHz Type=RS41-SG ser=S5010182 Radiosonde
EA1EF-14S50101822022-12-06 01:17:3643.4379-3.162861155612141Clb=-27.5m/s t=-58.4C 401.50MHz Type=RS41-SG meteocampoo.es - http://radiosondy.info
EA4EKH-11S50101822022-12-06 01:17:1343.4386-3.166841006912724Clb=-28.7m/s t=-55.5C h=2.3% p=-1.0hPa 401.501 MHz Type=RS41-SG ser=S5010182 Radiosonde
EA1EF-14S50101822022-12-06 01:17:0543.4389-3.168731046512953Clb=-29.5m/s t=-56.0C 401.50MHz Type=RS41-SG meteocampoo.es - http://radiosondy.info
EA1EF-14S50101822022-12-06 01:16:4843.4395-3.172181066713418Clb=-29.5m/s t=-57.7C 401.50MHz Type=RS41-SG meteocampoo.es - http://radiosondy.info
EA4EKH-11S50101822022-12-06 01:16:4243.4399-3.173741126913624Clb=-30.1m/s t=-57.4C h=2.3% p=-1.0hPa 401.501 MHz Type=RS41-SG ser=S5010182 Radiosonde
EA1EF-14S50101822022-12-06 01:16:3343.4404-3.17571036113892Clb=-29.9m/s t=-58.7C 401.50MHz Type=RS41-SG meteocampoo.es - http://radiosondy.info
EA1EF-14S50101822022-12-06 01:16:1643.4407-3.17894935714383Clb=-31.7m/s t=-60.3C 401.50MHz Type=RS41-SG meteocampoo.es - http://radiosondy.info
EA4EKH-11S50101822022-12-06 01:16:1143.4407-3.18008845614571Clb=-32.4m/s t=-60.3C h=2.3% p=-1.0hPa 401.501 MHz Type=RS41-SG ser=S5010182 Radiosonde
EA1EF-14S50101822022-12-06 01:16:0143.4406-3.18205956314890Clb=-32.8m/s t=-61.5C 401.50MHz Type=RS41-SG meteocampoo.es - http://radiosondy.info
EA1EF-14S50101822022-12-06 01:15:4543.4406-3.18552965015414Clb=-33.8m/s t=-61.0C 401.50MHz Type=RS41-SG meteocampoo.es - http://radiosondy.info
EA4EKH-11S50101822022-12-06 01:15:4143.4408-3.186511055615582Clb=-34.3m/s t=-61.8C h=2.3% p=-1.0hPa 401.501 MHz Type=RS41-SG ser=S5010182 Radiosonde
EA1EF-14S50101822022-12-06 01:15:3143.4411-3.18805933515960Clb=-34.6m/s t=-62.9C 401.50MHz Type=RS41-SG meteocampoo.es - http://radiosondy.info
EA1EF-14S50101822022-12-06 01:15:1543.4411-3.190021043716526Clb=-36.0m/s t=-62.7C 401.50MHz Type=RS41-SG meteocampoo.es - http://radiosondy.info
EA4EKH-11S50101822022-12-06 01:15:1243.4412-3.190471103316670Clb=-36.5m/s t=-61.9C h=2.2% p=-1.0hPa 401.501 MHz Type=RS41-SG ser=S5010182 Radiosonde
EA1EF-14S50101822022-12-06 01:15:0043.4415-3.192031062817113Clb=-38.3m/s t=-62.4C 401.50MHz Type=RS41-SG meteocampoo.es - http://radiosondy.info
EA1EF-14S50101822022-12-06 01:14:4543.4417-3.19348882217731Clb=-39.7m/s t=-60.7C 401.50MHz Type=RS41-SG meteocampoo.es - http://radiosondy.info
EA4EKH-11S50101822022-12-06 01:14:4243.4417-3.19379892817848Clb=-40.1m/s t=-60.4C h=1.6% p=-1.0hPa 401.501 MHz Type=RS41-SG ser=S5010182 Radiosonde
EA1EF-14S50101822022-12-06 01:14:2943.4417-3.19467891918376Clb=-41.1m/s t=-61.7C 401.50MHz Type=RS41-SG meteocampoo.es - http://radiosondy.info
EA1EF-14S50101822022-12-06 01:14:1543.442-3.195651282219051Clb=-43.6m/s t=-61.6C 401.50MHz Type=RS41-SG meteocampoo.es - http://radiosondy.info
EA4EKH-11S50101822022-12-06 01:14:1243.4421-3.195771372619138Clb=-44.1m/s t=-60.9C h=1.5% p=-1.0hPa 401.501 MHz Type=RS41-SG ser=S5010182 Radiosonde
EA1EF-14S50101822022-12-06 01:13:5843.4424-3.19652951719763Clb=-45.8m/s t=-62.5C 401.50MHz Type=RS41-SG meteocampoo.es - http://radiosondy.info
EA1EF-14S50101822022-12-06 01:13:4243.4427-3.197221321320521Clb=-48.4m/s t=-64.3C 401.50MHz Type=RS41-SG meteocampoo.es - http://radiosondy.info
EA4EKH-11S50101822022-12-06 01:13:4143.4427-3.197271361120619Clb=-49.2m/s t=-63.0C h=1.8% p=-1.0hPa 401.501 MHz Type=RS41-SG ser=S5010182 Radiosonde
EA1EF-14S50101822022-12-06 01:13:2643.4431-3.197551781121322Clb=-50.5m/s t=-61.7C 401.50MHz Type=RS41-SG meteocampoo.es - http://radiosondy.info
EA1EF-14S50101822022-12-06 01:13:1043.4435-3.197711612822161Clb=-54.7m/s t=-61.7C 401.50MHz Type=RS41-SG meteocampoo.es - http://radiosondy.info
EA1EF-14S50101822022-12-06 01:12:5443.4446-3.197731862423057Clb=-57.6m/s t=-61.6C 401.50MHz Type=RS41-SG meteocampoo.es - http://radiosondy.info
EA1EF-14S50101822022-12-06 01:12:3943.4455-3.197971482624019Clb=-63.9m/s t=-58.9C 401.50MHz Type=RS41-SG meteocampoo.es - http://radiosondy.info
EA1EF-14S50101822022-12-06 01:12:2143.4464-3.198821482825066Clb=-66.6m/s t=-58.0C 401.50MHz Type=RS41-SG meteocampoo.es - http://radiosondy.info
EA1EF-14S50101822022-12-06 01:12:0543.4474-3.19941433726098Clb=-61.8m/s t=-59.4C 401.50MHz Type=RS41-SG meteocampoo.es - http://radiosondy.info
EA4EKH-11S50101822022-12-06 01:11:3543.4492-3.202271074327709Clb=-19.0m/s t=-61.9C h=1.2% p=-1.0hPa 401.501 MHz Type=RS41-SG ser=S5010182 Radiosonde
EA4EKH-11S50101822022-12-06 01:11:0343.4497-3.20679933727611Clb=4.4m/s t=-62.3C h=1.3% p=-1.0hPa 401.501 MHz Type=RS41-SG ser=S5010182 Radiosonde
EA1EF-14S50101822022-12-06 01:10:5743.4499-3.207531123927587Clb=4.1m/s t=-62.8C 401.50MHz Type=RS41-SG meteocampoo.es - http://radiosondy.info
EA1EF-14S50101822022-12-06 01:10:4143.4505-3.209441154327512Clb=3.7m/s t=-62.9C 401.50MHz Type=RS41-SG meteocampoo.es - http://radiosondy.info
EA4EKH-11S50101822022-12-06 01:10:3243.4508-3.21021273327477Clb=3.9m/s t=-62.5C h=1.3% p=-1.0hPa 401.501 MHz Type=RS41-SG ser=S5010182 Radiosonde
EA1EF-14S50101822022-12-06 01:10:2143.4515-3.211411244427430Clb=4.6m/s t=-63.1C 401.50MHz Type=RS41-SG meteocampoo.es - http://radiosondy.info
EA1EF-14S50101822022-12-06 01:10:0343.4531-3.212921604827351Clb=4.9m/s t=-62.8C 401.50MHz Type=RS41-SG meteocampoo.es - http://radiosondy.info
EA4EKH-11S50101822022-12-06 01:10:0143.4532-3.213011594127342Clb=3.7m/s t=-62.2C h=1.3% p=-1.0hPa 401.501 MHz Type=RS41-SG ser=S5010182 Radiosonde
EA1EF-14S50101822022-12-06 01:09:4843.4546-3.21441535227283Clb=4.0m/s t=-62.9C 401.50MHz Type=RS41-SG meteocampoo.es - http://radiosondy.info
EA1EF-14S50101822022-12-06 01:09:3243.4563-3.21611525227214Clb=3.8m/s t=-62.6C 401.50MHz Type=RS41-SG meteocampoo.es - http://radiosondy.info
EA4EKH-11S50101822022-12-06 01:09:3143.4564-3.216181504627209Clb=4.7m/s t=-62.0C h=1.3% p=-1.0hPa 401.501 MHz Type=RS41-SG ser=S5010182 Radiosonde
EA1EF-14S50101822022-12-06 01:09:1643.4579-3.217711525227145Clb=3.8m/s t=-62.7C 401.50MHz Type=RS41-SG meteocampoo.es - http://radiosondy.info
EA4EKH-11S50101822022-12-06 01:08:5943.4597-3.219061595227079Clb=4.7m/s t=-62.4C h=1.3% p=-1.0hPa 401.501 MHz Type=RS41-SG ser=S5010182 Radiosonde
EA1EF-14S50101822022-12-06 01:08:4343.4615-3.220421484427014Clb=3.3m/s t=-62.8C 401.50MHz Type=RS41-SG meteocampoo.es - http://radiosondy.info
EA4EKH-11S50101822022-12-06 01:08:2643.4628-3.221891344126953Clb=5.0m/s t=-62.1C h=1.3% p=-1.0hPa 401.501 MHz Type=RS41-SG ser=S5010182 Radiosonde
EA1EF-14S50101822022-12-06 01:08:2543.4628-3.221991383926948Clb=4.6m/s t=-62.6C 401.50MHz Type=RS41-SG meteocampoo.es - http://radiosondy.info
EA4EKH-11S50101822022-12-06 01:07:5343.4647-3.225061204826826Clb=3.0m/s t=-61.9C h=1.3% p=-1.0hPa 401.501 MHz Type=RS41-SG ser=S5010182 Radiosonde
EA1EF-14S50101822022-12-06 01:07:4543.465-3.225731133526794Clb=3.9m/s t=-62.5C 401.50MHz Type=RS41-SG meteocampoo.es - http://radiosondy.info
EA1EF-14S50101822022-12-06 01:07:2943.4656-3.227351243326729Clb=3.7m/s t=-62.5C 401.50MHz Type=RS41-SG meteocampoo.es - http://radiosondy.info
EA4EKH-11S50101822022-12-06 01:07:2343.466-3.228091263726700Clb=4.1m/s t=-61.8C h=1.4% p=-1.0hPa 401.501 MHz Type=RS41-SG ser=S5010182 Radiosonde
EA1EF-14S50101822022-12-06 01:07:1443.4665-3.228681233526662Clb=3.9m/s t=-62.2C 401.50MHz Type=RS41-SG meteocampoo.es - http://radiosondy.info
EA1EF-14S50101822022-12-06 01:06:5743.4676-3.230021304126592Clb=5.0m/s t=-61.6C 401.50MHz Type=RS41-SG meteocampoo.es - http://radiosondy.info
EA4EKH-11S50101822022-12-06 01:06:5143.4681-3.230771454126560Clb=4.3m/s t=-60.9C h=1.3% p=-1.0hPa 401.501 MHz Type=RS41-SG ser=S5010182 Radiosonde
EA1EF-14S50101822022-12-06 01:06:4343.4698-3.233481414326449Clb=4.0m/s t=-61.3C 401.50MHz Type=RS41-SG meteocampoo.es - http://radiosondy.info
EA4EKH-11S50101822022-12-06 01:06:4243.4703-3.234071413926423Clb=4.6m/s t=-60.7C h=1.2% p=-1.0hPa 401.501 MHz Type=RS41-SG ser=S5010182 Radiosonde
EA1EF-14S50101822022-12-06 01:06:4143.4726-3.236251643926305Clb=4.9m/s t=-61.1C 401.50MHz Type=RS41-SG meteocampoo.es - http://radiosondy.info
EA1EF-14S50101822022-12-06 01:06:3943.4739-3.237251703526233Clb=5.2m/s t=-61.4C 401.50MHz Type=RS41-SG meteocampoo.es - http://radiosondy.info
EA1EF-14S50101822022-12-06 01:06:3643.4752-3.2381712826165Clb=4.2m/s t=-61.5C 401.50MHz Type=RS41-SG meteocampoo.es - http://radiosondy.info
EA4EKH-11S50101822022-12-06 01:06:3443.4755-3.238071633526148Clb=4.1m/s t=-60.9C h=1.2% p=-1.0hPa 401.501 MHz Type=RS41-SG ser=S5010182 Radiosonde
EA1EF-14S50101822022-12-06 01:06:2343.4764-3.238261753126084Clb=4.5m/s t=-61.7C 401.50MHz Type=RS41-SG meteocampoo.es - http://radiosondy.info
EA1EF-14S50101822022-12-06 01:06:1243.4776-3.238261853726014Clb=4.5m/s t=-61.5C 401.50MHz Type=RS41-SG meteocampoo.es - http://radiosondy.info
EA1EF-14S50101822022-12-06 01:06:0143.4791-3.238241744325946Clb=5.0m/s t=-61.2C 401.50MHz Type=RS41-SG meteocampoo.es - http://radiosondy.info
EA4EKH-11S50101822022-12-06 01:05:5943.4808-3.238141733725878Clb=3.7m/s t=-60.4C h=1.3% p=-1.0hPa 401.501 MHz Type=RS41-SG ser=S5010182 Radiosonde
EA1EF-14S50101822022-12-06 01:05:5643.4822-3.238261774425812Clb=4.8m/s t=-60.9C 401.50MHz Type=RS41-SG meteocampoo.es - http://radiosondy.info
EA4EKH-11S50101822022-12-06 01:05:5343.4839-3.238511654125740Clb=5.2m/s t=-60.0C h=1.2% p=-1.0hPa 401.501 MHz Type=RS41-SG ser=S5010182 Radiosonde
EA1EF-14S50101822022-12-06 01:05:5143.4856-3.239041653925668Clb=4.2m/s t=-60.3C 401.50MHz Type=RS41-SG meteocampoo.es - http://radiosondy.info
EA4EKH-11S50101822022-12-06 01:05:4843.487-3.239381593325597Clb=4.8m/s t=-59.8C h=1.2% p=-1.0hPa 401.501 MHz Type=RS41-SG ser=S5010182 Radiosonde
EA1EF-14S50101822022-12-06 01:05:4743.4871-3.239421613325593Clb=4.0m/s t=-60.4C 401.50MHz Type=RS41-SG meteocampoo.es - http://radiosondy.info
EA1EF-14S50101822022-12-06 01:05:4343.4887-3.23991732625504Clb=4.1m/s t=-60.5C 401.50MHz Type=RS41-SG meteocampoo.es - http://radiosondy.info
EA4EKH-11S50101822022-12-06 01:05:3743.4893-3.240251573025461Clb=4.7m/s t=-60.0C h=1.1% p=-1.0hPa 401.501 MHz Type=RS41-SG ser=S5010182 Radiosonde
EA1EF-14S50101822022-12-06 01:05:3143.4897-3.240461612025435Clb=4.4m/s t=-60.8C 401.50MHz Type=RS41-SG meteocampoo.es - http://radiosondy.info
EA1EF-14S50101822022-12-06 01:05:1643.4903-3.241031412225370Clb=3.5m/s t=-61.0C 401.50MHz Type=RS41-SG meteocampoo.es - http://radiosondy.info
EA4EKH-11S50101822022-12-06 01:05:0743.4906-3.241421391925327Clb=4.9m/s t=-60.6C h=1.2% p=-1.0hPa 401.501 MHz Type=RS41-SG ser=S5010182 Radiosonde
EA1EF-14S50101822022-12-06 01:05:0043.4914-3.242661352425223Clb=4.9m/s t=-60.9C 401.50MHz Type=RS41-SG meteocampoo.es - http://radiosondy.info
EA4EKH-11S50101822022-12-06 01:04:5943.4917-3.242991362625193Clb=4.7m/s t=-60.2C h=1.2% p=-1.0hPa 401.501 MHz Type=RS41-SG ser=S5010182 Radiosonde
EA1EF-14S50101822022-12-06 01:04:5843.4929-3.244571143525091Clb=3.7m/s t=-60.8C 401.50MHz Type=RS41-SG meteocampoo.es - http://radiosondy.info
EA4EKH-11S50101822022-12-06 01:04:5643.4932-3.245281283925061Clb=4.7m/s t=-60.4C h=1.2% p=-1.0hPa 401.501 MHz Type=RS41-SG ser=S5010182 Radiosonde
EA1EF-14S50101822022-12-06 01:04:5043.4936-3.246221043525023Clb=4.3m/s t=-61.4C 401.50MHz Type=RS41-SG meteocampoo.es - http://radiosondy.info
EA1EF-14S50101822022-12-06 01:04:3643.4943-3.247921102824958Clb=4.3m/s t=-61.1C 401.50MHz Type=RS41-SG meteocampoo.es - http://radiosondy.info
EA4EKH-11S50101822022-12-06 01:04:2843.4945-3.248451283124934Clb=4.7m/s t=-60.5C h=1.3% p=-1.0hPa 401.501 MHz Type=RS41-SG ser=S5010182 Radiosonde
EA1EF-14S50101822022-12-06 01:04:1343.4949-3.249251382024887Clb=3.7m/s t=-60.9C 401.50MHz Type=RS41-SG meteocampoo.es - http://radiosondy.info
EA1EF-14S50101822022-12-06 01:03:4943.4957-3.250061662024808Clb=4.0m/s t=-61.3C 401.50MHz Type=RS41-SG meteocampoo.es - http://radiosondy.info
EA4EKH-11S50101822022-12-06 01:03:4743.4958-3.250081662424804Clb=4.3m/s t=-60.8C h=1.2% p=-1.0hPa 401.501 MHz Type=RS41-SG ser=S5010182 Radiosonde
EA1EF-14S50101822022-12-06 01:03:2643.4965-3.250351582024743Clb=4.1m/s t=-61.5C 401.50MHz Type=RS41-SG meteocampoo.es - http://radiosondy.info
EA1EF-14S50101822022-12-06 01:03:0443.4971-3.25111262024674Clb=3.8m/s t=-61.8C 401.50MHz Type=RS41-SG meteocampoo.es - http://radiosondy.info
EA1EF-14S50101822022-12-06 01:02:4543.4975-3.25211202024609Clb=3.9m/s t=-61.8C 401.50MHz Type=RS41-SG meteocampoo.es - http://radiosondy.info
EA4EKH-11S50101822022-12-06 01:02:2443.4978-3.253912424539Clb=4.3m/s t=-60.8C h=1.2% p=-1.0hPa 401.501 MHz Type=RS41-SG ser=S5010182 Radiosonde
EA1EF-14S50101822022-12-06 01:02:2343.4978-3.253922224539Clb=4.3m/s t=-61.4C 401.50MHz Type=RS41-SG meteocampoo.es - http://radiosondy.info
EA1EF-14S50101822022-12-06 01:02:0243.4979-3.254161062024468Clb=4.0m/s t=-61.7C 401.50MHz Type=RS41-SG meteocampoo.es - http://radiosondy.info
EA4EKH-11S50101822022-12-06 01:01:4343.498-3.255131131924400Clb=4.2m/s t=-60.9C h=1.3% p=-1.0hPa 401.501 MHz Type=RS41-SG ser=S5010182 Radiosonde
EA1EF-14S50101822022-12-06 01:01:3943.4981-3.255181181924396Clb=4.3m/s t=-61.5C 401.50MHz Type=RS41-SG meteocampoo.es - http://radiosondy.info
EA1EF-14S50101822022-12-06 01:01:1143.4986-3.256071532224315Clb=4.1m/s t=-61.3C 401.50MHz Type=RS41-SG meteocampoo.es - http://radiosondy.info
EA4EKH-11S50101822022-12-06 01:00:5543.4992-3.256491502024260Clb=5.3m/s t=-60.5C h=1.3% p=-1.0hPa 401.501 MHz Type=RS41-SG ser=S5010182 Radiosonde
EA1EF-14S50101822022-12-06 01:00:4843.4994-3.25671442424241Clb=5.0m/s t=-60.9C 401.50MHz Type=RS41-SG meteocampoo.es - http://radiosondy.info
EA1EF-14S50101822022-12-06 01:00:2843.5002-3.257351442424173Clb=4.9m/s t=-61.2C 401.50MHz Type=RS41-SG meteocampoo.es - http://radiosondy.info
EA4EKH-11S50101822022-12-06 01:00:1143.5008-3.257981352224119Clb=4.6m/s t=-60.8C h=1.3% p=-1.0hPa 401.501 MHz Type=RS41-SG ser=S5010182 Radiosonde
EA1EF-14S50101822022-12-06 01:00:0143.501-3.258351091724091Clb=4.7m/s t=-61.5C 401.50MHz Type=RS41-SG meteocampoo.es - http://radiosondy.info
EA1EF-14S50101822022-12-06 00:59:4143.5012-3.25912901124022Clb=4.0m/s t=-61.2C 401.50MHz Type=RS41-SG meteocampoo.es - http://radiosondy.info
EA4EKH-11S50101822022-12-06 00:59:3043.5013-3.2594588623984Clb=4.6m/s t=-60.6C h=1.4% p=-1.0hPa 401.501 MHz Type=RS41-SG ser=S5010182 Radiosonde
EA1EF-14S50101822022-12-06 00:59:1843.5014-3.25977112923950Clb=5.1m/s t=-61.2C 401.50MHz Type=RS41-SG meteocampoo.es - http://radiosondy.info
EA1EF-14S50101822022-12-06 00:58:5543.5016-3.2601146723880Clb=3.7m/s t=-61.1C 401.50MHz Type=RS41-SG meteocampoo.es - http://radiosondy.info
EA4EKH-11S50101822022-12-06 00:58:4643.5017-3.26012177623851Clb=3.7m/s t=-60.7C h=1.3% p=-1.0hPa 401.501 MHz Type=RS41-SG ser=S5010182 Radiosonde
EA1EF-14S50101822022-12-06 00:58:3343.5018-3.260252011123814Clb=5.1m/s t=-61.6C 401.50MHz Type=RS41-SG meteocampoo.es - http://radiosondy.info
EA1EF-14S50101822022-12-06 00:58:1143.5021-3.259942332023744Clb=3.6m/s t=-61.8C 401.50MHz Type=RS41-SG meteocampoo.es - http://radiosondy.info
EA4EKH-11S50101822022-12-06 00:58:0343.5023-3.25971921723719Clb=4.1m/s t=-61.3C h=1.4% p=-1.0hPa 401.501 MHz Type=RS41-SG ser=S5010182 Radiosonde
EA1EF-14S50101822022-12-06 00:57:4843.5029-3.259581982423678Clb=4.2m/s t=-61.7C 401.50MHz Type=RS41-SG meteocampoo.es - http://radiosondy.info
EA1EF-14S50101822022-12-06 00:57:2343.5038-3.259152022623611Clb=4.1m/s t=-61.7C 401.50MHz Type=RS41-SG meteocampoo.es - http://radiosondy.info
EA4EKH-11S50101822022-12-06 00:57:1643.504-3.259131832623591Clb=4.8m/s t=-61.4C h=1.4% p=-1.0hPa 401.501 MHz Type=RS41-SG ser=S5010182 Radiosonde
EA1EF-14S50101822022-12-06 00:56:5943.5048-3.258921693023543Clb=4.2m/s t=-62.1C 401.50MHz Type=RS41-SG meteocampoo.es - http://radiosondy.info
EA1EF-14S50101822022-12-06 00:56:3343.506-3.258641903323471Clb=4.1m/s t=-62.4C 401.50MHz Type=RS41-SG meteocampoo.es - http://radiosondy.info
EA4EKH-11S50101822022-12-06 00:56:3043.5062-3.25861923523462Clb=4.0m/s t=-61.8C h=1.4% p=-1.0hPa 401.501 MHz Type=RS41-SG ser=S5010182 Radiosonde
EA1EF-14S50101822022-12-06 00:56:0843.5076-3.258471853923399Clb=4.4m/s t=-62.6C 401.50MHz Type=RS41-SG meteocampoo.es - http://radiosondy.info
EA4EKH-11S50101822022-12-06 00:55:4543.5092-3.258131963923340Clb=3.3m/s t=-62.5C h=1.5% p=-1.0hPa 401.501 MHz Type=RS41-SG ser=S5010182 Radiosonde
EA1EF-14S50101822022-12-06 00:55:3043.5102-3.257931994323298Clb=3.9m/s t=-62.9C 401.50MHz Type=RS41-SG meteocampoo.es - http://radiosondy.info
EA1EF-14S50101822022-12-06 00:55:0743.5119-3.257731864623230Clb=4.9m/s t=-63.0C 401.50MHz Type=RS41-SG meteocampoo.es - http://radiosondy.info
EA4EKH-11S50101822022-12-06 00:54:5843.5125-3.257691744623209Clb=3.8m/s t=-62.5C h=1.5% p=-1.0hPa 401.501 MHz Type=RS41-SG ser=S5010182 Radiosonde
EA1EF-14S50101822022-12-06 00:54:4243.5137-3.257971764323163Clb=4.7m/s t=-63.1C 401.50MHz Type=RS41-SG meteocampoo.es - http://radiosondy.info
EA1EF-14S50101822022-12-06 00:54:1843.5154-3.25831773323096Clb=4.6m/s t=-62.8C 401.50MHz Type=RS41-SG meteocampoo.es - http://radiosondy.info
EA4EKH-11S50101822022-12-06 00:54:1243.5157-3.258441583923077Clb=5.2m/s t=-62.2C h=1.5% p=-1.0hPa 401.501 MHz Type=RS41-SG ser=S5010182 Radiosonde
EA1EF-14S50101822022-12-06 00:53:5343.5166-3.258711562623026Clb=4.2m/s t=-62.7C 401.50MHz Type=RS41-SG meteocampoo.es - http://radiosondy.info
EA1EF-14S50101822022-12-06 00:53:2843.5176-3.259161362222955Clb=3.5m/s t=-62.9C 401.50MHz Type=RS41-SG meteocampoo.es - http://radiosondy.info
EA4EKH-11S50101822022-12-06 00:53:2443.5177-3.259291572222942Clb=4.3m/s t=-62.3C h=1.5% p=-1.0hPa 401.501 MHz Type=RS41-SG ser=S5010182 Radiosonde
EA1EF-14S50101822022-12-06 00:53:0443.5184-3.259381542622883Clb=3.4m/s t=-62.7C 401.50MHz Type=RS41-SG meteocampoo.es - http://radiosondy.info
EA1EF-14S50101822022-12-06 00:52:3743.5194-3.259481652622813Clb=4.4m/s t=-62.7C 401.50MHz Type=RS41-SG meteocampoo.es - http://radiosondy.info
EA4EKH-11S50101822022-12-06 00:52:3443.5195-3.25951842422801Clb=4.3m/s t=-62.2C h=1.5% p=-1.0hPa 401.501 MHz Type=RS41-SG ser=S5010182 Radiosonde
EA1EF-14S50101822022-12-06 00:52:1143.5204-3.259211833122742Clb=4.3m/s t=-63.0C 401.50MHz Type=RS41-SG meteocampoo.es - http://radiosondy.info
EA1EF-14S50101822022-12-06 00:51:5143.5217-3.258641993322672Clb=5.2m/s t=-63.1C 401.50MHz Type=RS41-SG meteocampoo.es - http://radiosondy.info
EA4EKH-11S50101822022-12-06 00:51:5043.5218-3.258581934122663Clb=3.4m/s t=-62.5C h=1.5% p=-1.0hPa 401.501 MHz Type=RS41-SG ser=S5010182 Radiosonde
EA1EF-14S50101822022-12-06 00:51:3743.523-3.258351933022597Clb=4.1m/s t=-62.5C 401.50MHz Type=RS41-SG meteocampoo.es - http://radiosondy.info
EA1JAY-16S50101822022-12-06 00:51:3143.5233-3.258251943722573Clb=5.2m/s t=-61.8C h=1.7% 401.500MHz Type=RS41-SG rdzTTGOsonde
EA1EF-14S50101822022-12-06 00:51:1943.5241-3.258271742622520Clb=4.9m/s t=-62.0C 401.50MHz Type=RS41-SG meteocampoo.es - http://radiosondy.info
EA1JAY-16S50101822022-12-06 00:51:0943.5247-3.258291512422475Clb=5.0m/s t=-61.0C h=1.6% 401.500MHz Type=RS41-SG rdzTTGOsonde
EA1EF-14S50101822022-12-06 00:51:0443.5251-3.258511622422446Clb=4.8m/s t=-61.3C 401.50MHz Type=RS41-SG meteocampoo.es - http://radiosondy.info
EA4EKH-11S50101822022-12-06 00:50:4843.5259-3.259021502422375Clb=4.9m/s t=-60.7C h=1.4% p=-1.0hPa 401.501 MHz Type=RS41-SG ser=S5010182 Radiosonde
EA1EF-14S50101822022-12-06 00:50:4743.5259-3.259021512622375Clb=4.8m/s t=-61.3C 401.50MHz Type=RS41-SG meteocampoo.es - http://radiosondy.info
EA1JAY-16S50101822022-12-06 00:50:4243.5262-3.259131622622357Clb=5.1m/s t=-60.7C h=1.6% 401.500MHz Type=RS41-SG rdzTTGOsonde
EA1EF-14S50101822022-12-06 00:50:3443.5267-3.259821292422304Clb=3.9m/s t=-61.3C 401.50MHz Type=RS41-SG meteocampoo.es - http://radiosondy.info
EA1JAY-16S50101822022-12-06 00:50:2143.527-3.260491113122259Clb=4.3m/s t=-60.9C h=1.6% 401.500MHz Type=RS41-SG rdzTTGOsonde
EA4EKH-11S50101822022-12-06 00:50:1743.5272-3.260921202222237Clb=5.2m/s t=-61.1C h=1.5% p=-1.0hPa 401.501 MHz Type=RS41-SG ser=S5010182 Radiosonde
EA1EF-14S50101822022-12-06 00:50:1643.5272-3.260981212022233Clb=4.1m/s t=-61.7C 401.50MHz Type=RS41-SG meteocampoo.es - http://radiosondy.info
EA1JAY-16S50101822022-12-06 00:49:5943.5274-3.261951101522168Clb=3.5m/s t=-61.3C h=1.6% 401.500MHz Type=RS41-SG rdzTTGOsonde
EA4EKH-11S50101822022-12-06 00:49:4643.5275-3.2626381622103Clb=5.3m/s t=-61.3C h=1.5% p=-1.0hPa 401.501 MHz Type=RS41-SG ser=S5010182 Radiosonde
EA1EF-14S50101822022-12-06 00:49:4343.5275-3.2626531722094Clb=4.3m/s t=-61.8C 401.50MHz Type=RS41-SG meteocampoo.es - http://radiosondy.info
EA1JAY-16S50101822022-12-06 00:49:3643.5316-3.264941271321086Clb=4.9m/s t=-61.5C h=1.8% 401.500MHz Type=RS41-SG rdzTTGOsonde
EA1EF-14S50101822022-12-06 00:49:3543.532-3.26518204421004Clb=4.7m/s t=-61.6C 401.50MHz Type=RS41-SG meteocampoo.es - http://radiosondy.info
EA1EF-14S50101822022-12-06 00:49:3443.5321-3.26515261620936Clb=5.1m/s t=-61.5C 401.50MHz Type=RS41-SG meteocampoo.es - http://radiosondy.info
EA1EF-14S50101822022-12-06 00:49:3343.5321-3.26495323620866Clb=3.6m/s t=-61.7C 401.50MHz Type=RS41-SG meteocampoo.es - http://radiosondy.info
EA1JAY-16S50101822022-12-06 00:49:3243.532-3.26494196620823Clb=3.4m/s t=-61.3C h=1.8% 401.500MHz Type=RS41-SG rdzTTGOsonde
EA1EF-14S50101822022-12-06 00:49:3143.532-3.26456213920737Clb=4.8m/s t=-62.1C 401.50MHz Type=RS41-SG meteocampoo.es - http://radiosondy.info
EA1EF-14S50101822022-12-06 00:49:3043.5324-3.264371921520671Clb=4.6m/s t=-62.3C 401.50MHz Type=RS41-SG meteocampoo.es - http://radiosondy.info
EA1JAY-16S50101822022-12-06 00:49:2943.5328-3.264431711720630Clb=4.6m/s t=-61.4C h=1.8% 401.500MHz Type=RS41-SG rdzTTGOsonde
EA1JAY-16S50101822022-12-06 00:49:2843.5336-3.264941481520543Clb=4.6m/s t=-61.9C h=1.9% 401.500MHz Type=RS41-SG rdzTTGOsonde
EA1EF-14S50101822022-12-06 00:49:2043.5341-3.26565136920472Clb=4.9m/s t=-62.9C 401.50MHz Type=RS41-SG meteocampoo.es - http://radiosondy.info
EA1JAY-16S50101822022-12-06 00:49:1643.5341-3.2657130620460Clb=4.7m/s t=-62.5C h=1.9% 401.500MHz Type=RS41-SG rdzTTGOsonde
EA1EF-14S50101822022-12-06 00:48:5843.5344-3.265891651120401Clb=4.2m/s t=-63.0C 401.50MHz Type=RS41-SG meteocampoo.es - http://radiosondy.info
EA4EKH-11S50101822022-12-06 00:48:5543.5344-3.26591118220394Clb=4.5m/s t=-62.4C h=1.7% p=-1.0hPa 401.501 MHz Type=RS41-SG ser=S5010182 Radiosonde
EA1JAY-16S50101822022-12-06 00:48:4243.5345-3.265991661520369Clb=4.7m/s t=-62.5C h=1.9% 401.500MHz Type=RS41-SG rdzTTGOsonde
EA1EF-14S50101822022-12-06 00:48:3143.5347-3.265992011720334Clb=3.3m/s t=-63.3C 401.50MHz Type=RS41-SG meteocampoo.es - http://radiosondy.info
EA1JAY-16S50101822022-12-06 00:48:0743.5352-3.26631541320279Clb=5.0m/s t=-62.8C h=1.9% 401.500MHz Type=RS41-SG rdzTTGOsonde
EA1EF-14S50101822022-12-06 00:48:0343.5353-3.266381442020265Clb=4.0m/s t=-63.3C 401.50MHz Type=RS41-SG meteocampoo.es - http://radiosondy.info
EA4EKH-11S50101822022-12-06 00:48:0243.5354-3.266411451320261Clb=4.9m/s t=-62.7C h=1.7% p=-1.0hPa 401.501 MHz Type=RS41-SG ser=S5010182 Radiosonde
EA1EF-14S50101822022-12-06 00:47:3443.536-3.267031422620196Clb=4.4m/s t=-63.4C 401.50MHz Type=RS41-SG meteocampoo.es - http://radiosondy.info
EA1JAY-16S50101822022-12-06 00:47:3043.5361-3.267081432820192Clb=4.7m/s t=-62.8C h=2.0% 401.500MHz Type=RS41-SG rdzTTGOsonde
EA4EKH-11S50101822022-12-06 00:47:0343.5368-3.267851262820129Clb=3.3m/s t=-62.4C h=1.8% p=-1.0hPa 401.501 MHz Type=RS41-SG ser=S5010182 Radiosonde
EA1EF-14S50101822022-12-06 00:46:3643.5375-3.268721342220063Clb=4.3m/s t=-62.5C 401.50MHz Type=RS41-SG meteocampoo.es - http://radiosondy.info
EA1JAY-16S50101822022-12-06 00:46:2343.5378-3.269051291920036Clb=4.4m/s t=-61.8C h=1.9% 401.500MHz Type=RS41-SG rdzTTGOsonde
EA4EKH-11S50101822022-12-06 00:46:0843.5381-3.269521302419997Clb=3.1m/s t=-62.0C h=1.8% p=-1.0hPa 401.501 MHz Type=RS41-SG ser=S5010182 Radiosonde
EA1EF-14S50101822022-12-06 00:46:0543.5381-3.269591281919994Clb=3.8m/s t=-62.5C 401.50MHz Type=RS41-SG meteocampoo.es - http://radiosondy.info
EA1JAY-16S50101822022-12-06 00:45:4543.5383-3.270121301919945Clb=4.9m/s t=-61.9C h=1.9% 401.500MHz Type=RS41-SG rdzTTGOsonde
EA1EF-14S50101822022-12-06 00:45:3843.5385-3.270381191919923Clb=4.7m/s t=-62.7C 401.50MHz Type=RS41-SG meteocampoo.es - http://radiosondy.info
EA4EKH-11S50101822022-12-06 00:45:1243.5387-3.27113942219865Clb=4.3m/s t=-62.5C h=1.9% p=-1.0hPa 401.501 MHz Type=RS41-SG ser=S5010182 Radiosonde
EA1JAY-16S50101822022-12-06 00:45:0743.5387-3.27129942219856Clb=3.6m/s t=-62.5C h=2.1% 401.500MHz Type=RS41-SG rdzTTGOsonde
EA1EF-14S50101822022-12-06 00:44:4243.5387-3.27249861919786Clb=4.4m/s t=-63.3C 401.50MHz Type=RS41-SG meteocampoo.es - http://radiosondy.info
EA1JAY-16S50101822022-12-06 00:44:3343.5387-3.27271011519769Clb=4.6m/s t=-62.9C h=2.0% 401.500MHz Type=RS41-SG rdzTTGOsonde
EA4EKH-11S50101822022-12-06 00:44:2043.5387-3.27327931919736Clb=3.3m/s t=-63.1C h=1.9% p=-1.0hPa 401.501 MHz Type=RS41-SG ser=S5010182 Radiosonde
EA1EF-14S50101822022-12-06 00:44:1243.5388-3.273531172219720Clb=3.6m/s t=-63.7C 401.50MHz Type=RS41-SG meteocampoo.es - http://radiosondy.info
EA1JAY-16S50101822022-12-06 00:43:5443.539-3.274231262419679Clb=4.9m/s t=-63.2C h=2.0% 401.500MHz Type=RS41-SG rdzTTGOsonde
EA1EF-14S50101822022-12-06 00:43:4443.5392-3.274481471319656Clb=2.8m/s t=-64.1C 401.50MHz Type=RS41-SG meteocampoo.es - http://radiosondy.info
EA4EKH-11S50101822022-12-06 00:43:2343.5394-3.2749167719607Clb=3.5m/s t=-63.8C h=1.9% p=-1.0hPa 401.501 MHz Type=RS41-SG ser=S5010182 Radiosonde
EA1JAY-16S50101822022-12-06 00:43:1543.5395-3.27489181719591Clb=3.9m/s t=-63.7C h=2.2% 401.500MHz Type=RS41-SG rdzTTGOsonde
EA1EF-14S50101822022-12-06 00:43:1443.5395-3.27491561119587Clb=4.4m/s t=-64.3C 401.50MHz Type=RS41-SG meteocampoo.es - http://radiosondy.info
EA1EF-14S50101822022-12-06 00:42:4543.5399-3.275011831519523Clb=3.8m/s t=-64.1C 401.50MHz Type=RS41-SG meteocampoo.es - http://radiosondy.info
EA1JAY-16S50101822022-12-06 00:42:2943.5401-3.27511722019496Clb=3.9m/s t=-63.6C h=2.2% 401.500MHz Type=RS41-SG rdzTTGOsonde
EA4EKH-11S50101822022-12-06 00:42:2443.5402-3.275131782219483Clb=3.3m/s t=-63.5C h=2.0% p=-1.0hPa 401.501 MHz Type=RS41-SG ser=S5010182 Radiosonde
EA1EF-14S50101822022-12-06 00:42:1143.5405-3.275081492019459Clb=4.0m/s t=-63.9C 401.50MHz Type=RS41-SG meteocampoo.es - http://radiosondy.info
EA1JAY-16S50101822022-12-06 00:41:5043.541-3.275261792219414Clb=4.0m/s t=-63.0C h=2.2% 401.500MHz Type=RS41-SG rdzTTGOsonde
EA1EF-14S50101822022-12-06 00:41:4343.5413-3.275331652419392Clb=4.8m/s t=-63.4C 401.50MHz Type=RS41-SG meteocampoo.es - http://radiosondy.info
EA4EKH-11S50101822022-12-06 00:41:2643.5419-3.275611592619353Clb=4.4m/s t=-62.7C h=1.8% p=-1.0hPa 401.501 MHz Type=RS41-SG ser=S5010182 Radiosonde
EA1EF-14S50101822022-12-06 00:41:1243.5422-3.275781533119325Clb=4.1m/s t=-63.2C 401.50MHz Type=RS41-SG meteocampoo.es - http://radiosondy.info
EA1JAY-16S50101822022-12-06 00:41:0943.5423-3.275831543119321Clb=4.0m/s t=-62.6C h=2.2% 401.500MHz Type=RS41-SG rdzTTGOsonde
EA1EF-14S50101822022-12-06 00:40:3843.5435-3.276681543019248Clb=4.2m/s t=-62.7C 401.50MHz Type=RS41-SG meteocampoo.es - http://radiosondy.info
EA1JAY-16S50101822022-12-06 00:40:3143.5438-3.276861493119236Clb=4.2m/s t=-62.1C h=2.0% 401.500MHz Type=RS41-SG rdzTTGOsonde
EA4EKH-11S50101822022-12-06 00:40:2643.5439-3.277021442619223Clb=4.8m/s t=-62.0C h=1.7% p=-1.0hPa 401.501 MHz Type=RS41-SG ser=S5010182 Radiosonde
EA1EF-14S50101822022-12-06 00:40:1043.5445-3.277621313119179Clb=3.8m/s t=-62.3C 401.50MHz Type=RS41-SG meteocampoo.es - http://radiosondy.info
EA1JAY-16S50101822022-12-06 00:39:3943.5452-3.278841152819117Clb=4.5m/s t=-61.9C h=2.0% 401.500MHz Type=RS41-SG rdzTTGOsonde
EA4EKH-11S50101822022-12-06 00:39:3043.5454-3.279431202819087Clb=3.2m/s t=-62.3C h=1.8% p=-1.0hPa 401.501 MHz Type=RS41-SG ser=S5010182 Radiosonde
EA1EF-14S50101822022-12-06 00:39:1343.5455-3.28019952619049Clb=3.7m/s t=-62.7C 401.50MHz Type=RS41-SG meteocampoo.es - http://radiosondy.info
EA1JAY-16S50101822022-12-06 00:38:5543.5457-3.281021172619008Clb=4.0m/s t=-62.0C h=2.0% 401.500MHz Type=RS41-SG rdzTTGOsonde
EA1EF-14S50101822022-12-06 00:38:4443.5458-3.28151152418983Clb=4.1m/s t=-62.5C 401.50MHz Type=RS41-SG meteocampoo.es - http://radiosondy.info
EA4EKH-11S50101822022-12-06 00:38:3543.546-3.281941242618956Clb=3.9m/s t=-61.9C h=1.8% p=-1.0hPa 401.501 MHz Type=RS41-SG ser=S5010182 Radiosonde
EA1EF-14S50101822022-12-06 00:38:1743.5462-3.282651081918913Clb=4.7m/s t=-62.6C 401.50MHz Type=RS41-SG meteocampoo.es - http://radiosondy.info
EA1JAY-16S50101822022-12-06 00:38:1643.5462-3.282651091918913Clb=4.8m/s t=-62.0C h=2.0% 401.500MHz Type=RS41-SG rdzTTGOsonde
EA1EF-14S50101822022-12-06 00:37:4043.5464-3.283771081518839Clb=4.1m/s t=-62.7C 401.50MHz Type=RS41-SG meteocampoo.es - http://radiosondy.info
EA4EKH-11S50101822022-12-06 00:37:3643.5465-3.283941031518825Clb=4.6m/s t=-62.0C h=1.8% p=-1.0hPa 401.501 MHz Type=RS41-SG ser=S5010182 Radiosonde
EA1JAY-16S50101822022-12-06 00:37:3243.5465-3.283941051518825Clb=4.6m/s t=-62.0C h=2.1% 401.500MHz Type=RS41-SG rdzTTGOsonde
EA1EF-14S50101822022-12-06 00:37:0743.5465-3.28456941918770Clb=4.9m/s t=-62.2C 401.50MHz Type=RS41-SG meteocampoo.es - http://radiosondy.info
EA1JAY-16S50101822022-12-06 00:36:5143.5465-3.285982018740Clb=4.7m/s t=-61.7C h=2.0% 401.500MHz Type=RS41-SG rdzTTGOsonde
EA1EF-14S50101822022-12-06 00:36:3543.5464-3.28556731918703Clb=4.5m/s t=-62.3C 401.50MHz Type=RS41-SG meteocampoo.es - http://radiosondy.info
EA4EKH-11S50101822022-12-06 00:36:3243.5464-3.28567711718693Clb=3.7m/s t=-61.7C h=1.8% p=-1.0hPa 401.501 MHz Type=RS41-SG ser=S5010182 Radiosonde
EA1JAY-16S50101822022-12-06 00:36:1043.5463-3.28629611518653Clb=3.9m/s t=-61.6C h=2.0% 401.500MHz Type=RS41-SG rdzTTGOsonde
EA1EF-14S50101822022-12-06 00:36:0543.5462-3.28644541318636Clb=4.9m/s t=-62.2C 401.50MHz Type=RS41-SG meteocampoo.es - http://radiosondy.info
EA4EKH-11S50101822022-12-06 00:35:4743.5461-3.2871993718564Clb=3.5m/s t=-61.5C h=1.8% p=-1.0hPa 401.501 MHz Type=RS41-SG ser=S5010182 Radiosonde
EA1JAY-16S50101822022-12-06 00:35:4543.5461-3.2871994718564Clb=3.5m/s t=-61.5C h=2.1% 401.500MHz Type=RS41-SG rdzTTGOsonde
EA1EF-14S50101822022-12-06 00:35:3643.5461-3.2877982618495Clb=4.5m/s t=-61.9C 401.50MHz Type=RS41-SG meteocampoo.es - http://radiosondy.info
EA1JAY-16S50101822022-12-06 00:35:2743.5462-3.28786129618471Clb=3.7m/s t=-61.3C h=2.1% 401.500MHz Type=RS41-SG rdzTTGOsonde
EA4EKH-11S50101822022-12-06 00:35:1843.5463-3.28803111718439Clb=3.7m/s t=-61.3C h=1.8% p=-1.0hPa 401.501 MHz Type=RS41-SG ser=S5010182 Radiosonde
EA1EF-14S50101822022-12-06 00:35:1643.5463-3.28809105718431Clb=3.8m/s t=-61.9C 401.50MHz Type=RS41-SG meteocampoo.es - http://radiosondy.info
EA1JAY-16S50101822022-12-06 00:35:0343.5464-3.28821100718391Clb=3.9m/s t=-61.5C h=2.1% 401.500MHz Type=RS41-SG rdzTTGOsonde
EA1EF-14S50101822022-12-06 00:34:5743.5464-3.288411411518369Clb=3.5m/s t=-62.0C 401.50MHz Type=RS41-SG meteocampoo.es - http://radiosondy.info
EA4EKH-11S50101822022-12-06 00:34:4543.5466-3.2891031518318Clb=3.8m/s t=-61.6C h=1.9% p=-1.0hPa 401.501 MHz Type=RS41-SG ser=S5010182 Radiosonde
EA1EF-14S50101822022-12-06 00:34:4143.5467-3.289161112018308Clb=4.6m/s t=-62.2C 401.50MHz Type=RS41-SG meteocampoo.es - http://radiosondy.info
EA1JAY-16S50101822022-12-06 00:34:4043.5467-3.289161122018308Clb=4.7m/s t=-61.6C h=2.1% 401.500MHz Type=RS41-SG rdzTTGOsonde
EA1EF-14S50101822022-12-06 00:34:2843.547-3.29011242218245Clb=4.0m/s t=-62.4C 401.50MHz Type=RS41-SG meteocampoo.es - http://radiosondy.info
EA1JAY-16S50101822022-12-06 00:34:2443.5471-3.290311241718229Clb=3.9m/s t=-61.9C h=2.2% 401.500MHz Type=RS41-SG rdzTTGOsonde
EA4EKH-11S50101822022-12-06 00:34:1743.5473-3.290911082218198Clb=3.9m/s t=-61.9C h=1.9% p=-1.0hPa 401.501 MHz Type=RS41-SG ser=S5010182 Radiosonde
EA1EF-14S50101822022-12-06 00:34:1143.5474-3.291211182618184Clb=3.8m/s t=-62.4C 401.50MHz Type=RS41-SG meteocampoo.es - http://radiosondy.info
EA1JAY-16S50101822022-12-06 00:33:5943.5476-3.29217962618141Clb=3.2m/s t=-61.6C h=2.2% 401.500MHz Type=RS41-SG rdzTTGOsonde
EA1EF-14S50101822022-12-06 00:33:5343.5476-3.2926962418119Clb=3.7m/s t=-62.0C 401.50MHz Type=RS41-SG meteocampoo.es - http://radiosondy.info
EA4EKH-11S50101822022-12-06 00:33:4343.5477-3.29352992418078Clb=4.1m/s t=-61.4C h=1.9% p=-1.0hPa 401.501 MHz Type=RS41-SG ser=S5010182 Radiosonde
EA1EF-14S50101822022-12-06 00:33:3743.5477-3.29394952618057Clb=3.7m/s t=-62.0C 401.50MHz Type=RS41-SG meteocampoo.es - http://radiosondy.info
EA1JAY-16S50101822022-12-06 00:33:3643.5477-3.29394952618057Clb=3.7m/s t=-61.5C h=2.2% 401.500MHz Type=RS41-SG rdzTTGOsonde
EA1EF-14S50101822022-12-06 00:33:2243.5477-3.29531903117994Clb=3.6m/s t=-62.3C 401.50MHz Type=RS41-SG meteocampoo.es - http://radiosondy.info
EA1JAY-16S50101822022-12-06 00:33:1543.5476-3.29586833117973Clb=4.1m/s t=-61.8C h=2.2% 401.500MHz Type=RS41-SG rdzTTGOsonde
EA4EKH-11S50101822022-12-06 00:33:1243.5476-3.29639913017953Clb=4.2m/s t=-61.8C h=2.0% p=-1.0hPa 401.501 MHz Type=RS41-SG ser=S5010182 Radiosonde
EA1EF-14S50101822022-12-06 00:33:0543.548-3.35103983515998Clb=4.2m/s t=-62.1C 401.50MHz Type=RS41-SG meteocampoo.es - http://radiosondy.info
EA1JAY-16S50101822022-12-06 00:32:5243.5481-3.35187973715970Clb=4.3m/s t=-61.8C h=2.7% 401.500MHz Type=RS41-SG rdzTTGOsonde
EA4EKH-11S50101822022-12-06 00:32:4643.5481-3.35238943515954Clb=3.9m/s t=-61.8C h=2.5% p=-1.0hPa 401.501 MHz Type=RS41-SG ser=S5010182 Radiosonde
EA1EF-14S50101822022-12-06 00:32:3743.5482-3.352951093315934Clb=4.0m/s t=-62.3C 401.50MHz Type=RS41-SG meteocampoo.es - http://radiosondy.info
EA1JAY-16S50101822022-12-06 00:32:1343.5485-3.354231073515886Clb=3.5m/s t=-62.1C h=2.8% 401.500MHz Type=RS41-SG rdzTTGOsonde
EA1EF-14S50101822022-12-06 00:32:0643.5486-3.354681073715870Clb=4.3m/s t=-62.8C 401.50MHz Type=RS41-SG meteocampoo.es - http://radiosondy.info
EA4EKH-11S50101822022-12-06 00:31:4643.5488-3.355871003515833Clb=2.9m/s t=-62.3C h=2.5% p=-1.0hPa 401.501 MHz Type=RS41-SG ser=S5010182 Radiosonde
EA1EF-14S50101822022-12-06 00:31:3543.549-3.35661204315811Clb=3.7m/s t=-62.8C 401.50MHz Type=RS41-SG meteocampoo.es - http://radiosondy.info
EA1JAY-16S50101822022-12-06 00:31:3343.549-3.35661213715811Clb=3.8m/s t=-62.2C h=2.8% 401.500MHz Type=RS41-SG rdzTTGOsonde
EA1EF-14S50101822022-12-06 00:31:0643.5498-3.358711224815751Clb=4.3m/s t=-63.0C 401.50MHz Type=RS41-SG meteocampoo.es - http://radiosondy.info
EA1JAY-16S50101822022-12-06 00:30:5343.5501-3.359371224815733Clb=3.4m/s t=-62.4C h=2.8% 401.500MHz Type=RS41-SG rdzTTGOsonde
EA4EKH-11S50101822022-12-06 00:30:4843.5504-3.359951195215718Clb=3.3m/s t=-62.5C h=2.5% p=-1.0hPa 401.501 MHz Type=RS41-SG ser=S5010182 Radiosonde
EA1EF-14S50101822022-12-06 00:30:3543.5507-3.361051125215691Clb=3.9m/s t=-62.9C 401.50MHz Type=RS41-SG meteocampoo.es - http://radiosondy.info
EA1JAY-16S50101822022-12-06 00:30:1543.5512-3.362761145215654Clb=4.0m/s t=-62.2C h=2.7% 401.500MHz Type=RS41-SG rdzTTGOsonde
EA1EF-14S50101822022-12-06 00:30:0543.5515-3.363731105615633Clb=3.8m/s t=-62.7C 401.50MHz Type=RS41-SG meteocampoo.es - http://radiosondy.info
EA4EKH-11S50101822022-12-06 00:29:5043.5519-3.365211085615605Clb=4.1m/s t=-62.1C h=2.5% p=-1.0hPa 401.501 MHz Type=RS41-SG ser=S5010182 Radiosonde
EA1JAY-16S50101822022-12-06 00:29:3843.5521-3.366291035415584Clb=4.1m/s t=-62.0C h=2.7% 401.500MHz Type=RS41-SG rdzTTGOsonde
EA1EF-14S50101822022-12-06 00:29:3643.5521-3.366651025615577Clb=3.6m/s t=-62.5C 401.50MHz Type=RS41-SG meteocampoo.es - http://radiosondy.info
EA1EF-14S50101822022-12-06 00:29:0543.5524-3.36962985615516Clb=3.0m/s t=-62.1C 401.50MHz Type=RS41-SG meteocampoo.es - http://radiosondy.info
EA1JAY-16S50101822022-12-06 00:28:5843.5525-3.3702945715503Clb=3.7m/s t=-61.5C h=2.7% 401.500MHz Type=RS41-SG rdzTTGOsonde
EA4EKH-11S50101822022-12-06 00:28:5243.5525-3.37097925415488Clb=3.7m/s t=-61.5C h=2.5% p=-1.0hPa 401.501 MHz Type=RS41-SG ser=S5010182 Radiosonde
EA1EF-14S50101822022-12-06 00:28:3643.5525-3.37269876115453Clb=4.6m/s t=-61.8C 401.50MHz Type=RS41-SG meteocampoo.es - http://radiosondy.info
EA1JAY-16S50101822022-12-06 00:28:2243.5524-3.37411865915426Clb=4.6m/s t=-61.3C h=2.6% 401.500MHz Type=RS41-SG rdzTTGOsonde
EA1EF-14S50101822022-12-06 00:28:0643.5522-3.37599815915391Clb=3.8m/s t=-62.1C 401.50MHz Type=RS41-SG meteocampoo.es - http://radiosondy.info
EA4EKH-11S50101822022-12-06 00:27:5443.552-3.37721755615366Clb=3.9m/s t=-61.7C h=2.4% p=-1.0hPa 401.501 MHz Type=RS41-SG ser=S5010182 Radiosonde
EA1JAY-16S50101822022-12-06 00:27:4243.5518-3.37833765715343Clb=3.7m/s t=-61.8C h=2.7% 401.500MHz Type=RS41-SG rdzTTGOsonde
EA1EF-14S50101822022-12-06 00:27:3643.5517-3.37916746315327Clb=3.6m/s t=-62.3C 401.50MHz Type=RS41-SG meteocampoo.es - http://radiosondy.info
EA1EF-14S50101822022-12-06 00:27:0343.5509-3.38247745915267Clb=3.8m/s t=-62.0C 401.50MHz Type=RS41-SG meteocampoo.es - http://radiosondy.info
EA1JAY-16S50101822022-12-06 00:27:0143.5509-3.38247746315267Clb=3.9m/s t=-61.5C h=2.6% 401.500MHz Type=RS41-SG rdzTTGOsonde
EA4EKH-11S50101822022-12-06 00:26:5443.5507-3.38354766315249Clb=3.4m/s t=-61.6C h=2.4% p=-1.0hPa 401.501 MHz Type=RS41-SG ser=S5010182 Radiosonde
EA1EF-14S50101822022-12-06 00:26:3443.5503-3.38558805615207Clb=3.5m/s t=-62.0C 401.50MHz Type=RS41-SG meteocampoo.es - http://radiosondy.info
EA1JAY-16S50101822022-12-06 00:26:2243.55-3.38672725615184Clb=4.0m/s t=-61.3C h=2.7% 401.500MHz Type=RS41-SG rdzTTGOsonde
EA1EF-14S50101822022-12-06 00:26:0243.5496-3.38851795715144Clb=5.1m/s t=-61.8C 401.50MHz Type=RS41-SG meteocampoo.es - http://radiosondy.info
EA4EKH-11S50101822022-12-06 00:25:5543.5495-3.38929745915127Clb=4.0m/s t=-61.2C h=2.4% p=-1.0hPa 401.501 MHz Type=RS41-SG ser=S5010182 Radiosonde
EA1JAY-16S50101822022-12-06 00:25:4243.5493-3.39042825615103Clb=4.1m/s t=-61.0C h=2.6% 401.500MHz Type=RS41-SG rdzTTGOsonde
EA1EF-14S50101822022-12-06 00:25:3243.5492-3.39158835715076Clb=5.0m/s t=-61.4C 401.50MHz Type=RS41-SG meteocampoo.es - http://radiosondy.info
EA1JAY-16S50101822022-12-06 00:25:0143.549-3.39451856315012Clb=4.1m/s t=-60.6C h=2.5% 401.500MHz Type=RS41-SG rdzTTGOsonde
EA1EF-14S50101822022-12-06 00:25:0043.549-3.39473856115008Clb=3.8m/s t=-61.3C 401.50MHz Type=RS41-SG meteocampoo.es - http://radiosondy.info
EA4EKH-11S50101822022-12-06 00:24:5643.549-3.39536905714996Clb=2.9m/s t=-60.9C h=2.3% p=-1.0hPa 401.501 MHz Type=RS41-SG ser=S5010182 Radiosonde
EA1EF-14S50101822022-12-06 00:24:3043.5492-3.3981956114943Clb=3.5m/s t=-61.6C 401.50MHz Type=RS41-SG meteocampoo.es - http://radiosondy.info
EA1JAY-16S50101822022-12-06 00:24:1643.5492-3.39934985914919Clb=3.3m/s t=-61.1C h=2.6% 401.500MHz Type=RS41-SG rdzTTGOsonde
EA1EF-14S50101822022-12-06 00:24:0043.5493-3.40146945914879Clb=3.4m/s t=-61.5C 401.50MHz Type=RS41-SG meteocampoo.es - http://radiosondy.info
EA4EKH-11S50101822022-12-06 00:23:5643.5493-3.40189935914870Clb=5.0m/s t=-60.9C h=2.4% p=-1.0hPa 401.501 MHz Type=RS41-SG ser=S5010182 Radiosonde
EA1JAY-16S50101822022-12-06 00:23:3743.5494-3.40369885714835Clb=4.0m/s t=-60.8C h=2.6% 401.500MHz Type=RS41-SG rdzTTGOsonde
EA1EF-14S50101822022-12-06 00:23:3043.5493-3.40472875714815Clb=3.7m/s t=-61.3C 401.50MHz Type=RS41-SG meteocampoo.es - http://radiosondy.info
EA1EF-14S50101822022-12-06 00:22:5943.5493-3.40786945714748Clb=4.5m/s t=-61.0C 401.50MHz Type=RS41-SG meteocampoo.es - http://radiosondy.info
EA1JAY-16S50101822022-12-06 00:22:5843.5493-3.40786945914748Clb=4.5m/s t=-60.5C h=2.6% 401.500MHz Type=RS41-SG rdzTTGOsonde
EA1EF-14S50101822022-12-06 00:22:2743.5494-3.41097915614686Clb=4.3m/s t=-60.8C 401.50MHz Type=RS41-SG meteocampoo.es - http://radiosondy.info
EA1JAY-16S50101822022-12-06 00:22:1843.5494-3.41178885614670Clb=4.0m/s t=-60.2C h=2.5% 401.500MHz Type=RS41-SG rdzTTGOsonde
EA4EKH-11S50101822022-12-06 00:21:5843.5493-3.41405825614622Clb=3.9m/s t=-60.0C h=2.2% p=-1.0hPa 401.501 MHz Type=RS41-SG ser=S5010182 Radiosonde
EA1EF-14S50101822022-12-06 00:21:2943.549-3.4169825614561Clb=3.7m/s t=-60.9C 401.50MHz Type=RS41-SG meteocampoo.es - http://radiosondy.info
EA1JAY-16S50101822022-12-06 00:21:2143.5489-3.41761805414545Clb=3.8m/s t=-60.2C h=2.5% 401.500MHz Type=RS41-SG rdzTTGOsonde
EA4EKH-11S50101822022-12-06 00:21:0243.5488-3.41972835914502Clb=4.0m/s t=-59.8C h=2.2% p=-1.0hPa 401.501 MHz Type=RS41-SG ser=S5010182 Radiosonde
EA1EF-14S50101822022-12-06 00:21:0043.5488-3.41992845914498Clb=4.2m/s t=-60.3C 401.50MHz Type=RS41-SG meteocampoo.es - http://radiosondy.info
EA1JAY-16S50101822022-12-06 00:20:4443.5486-3.4215915714467Clb=3.5m/s t=-59.7C h=2.5% 401.500MHz Type=RS41-SG rdzTTGOsonde
EA1EF-14S50101822022-12-06 00:20:2943.5486-3.42311836114436Clb=4.2m/s t=-60.7C 401.50MHz Type=RS41-SG meteocampoo.es - http://radiosondy.info
EA1JAY-16S50101822022-12-06 00:20:0343.5487-3.42579936314386Clb=3.2m/s t=-60.1C h=2.5% 401.500MHz Type=RS41-SG rdzTTGOsonde
EA4EKH-11S50101822022-12-06 00:20:0243.5487-3.42601916314383Clb=3.4m/s t=-60.1C h=2.3% p=-1.0hPa 401.501 MHz Type=RS41-SG ser=S5010182 Radiosonde
EA1EF-14S50101822022-12-06 00:19:5743.5487-3.42643956514376Clb=3.4m/s t=-60.6C 401.50MHz Type=RS41-SG meteocampoo.es - http://radiosondy.info
EA1EF-14S50101822022-12-06 00:19:2743.5489-3.42999946514314Clb=3.7m/s t=-60.4C 401.50MHz Type=RS41-SG meteocampoo.es - http://radiosondy.info
EA1JAY-16S50101822022-12-06 00:19:2343.5489-3.43042976514306Clb=3.8m/s t=-59.8C h=2.4% 401.500MHz Type=RS41-SG rdzTTGOsonde
EA4EKH-11S50101822022-12-06 00:19:0543.5491-3.43288906714265Clb=4.1m/s t=-59.5C h=2.2% p=-1.0hPa 401.501 MHz Type=RS41-SG ser=S5010182 Radiosonde
EA1EF-14S50101822022-12-06 00:18:5943.5491-3.43354956514255Clb=3.4m/s t=-59.9C 401.50MHz Type=RS41-SG meteocampoo.es - http://radiosondy.info
EA1JAY-16S50101822022-12-06 00:18:3143.5492-3.43684966514197Clb=3.5m/s t=-58.8C h=2.3% 401.500MHz Type=RS41-SG rdzTTGOsonde
EA1EF-14S50101822022-12-06 00:18:2743.5493-3.43749916314186Clb=4.1m/s t=-59.3C 401.50MHz Type=RS41-SG meteocampoo.es - http://radiosondy.info
EA4EKH-11S50101822022-12-06 00:18:0843.5493-3.43985946114144Clb=4.3m/s t=-58.4C h=2.1% p=-1.0hPa 401.501 MHz Type=RS41-SG ser=S5010182 Radiosonde
EA1EF-14S50101822022-12-06 00:17:5743.5494-3.44098946314125Clb=2.9m/s t=-58.8C 401.50MHz Type=RS41-SG meteocampoo.es - http://radiosondy.info
EA1JAY-16S50101822022-12-06 00:17:4843.5494-3.44188946314108Clb=4.2m/s t=-58.1C h=2.3% 401.500MHz Type=RS41-SG rdzTTGOsonde
EA1EF-14S50101822022-12-06 00:17:2743.5495-3.4444946114065Clb=3.1m/s t=-58.5C 401.50MHz Type=RS41-SG meteocampoo.es - http://radiosondy.info
EA4EKH-11S50101822022-12-06 00:17:0843.5496-3.44643986714028Clb=4.1m/s t=-57.9C h=2.1% p=-1.0hPa 401.501 MHz Type=RS41-SG ser=S5010182 Radiosonde
EA1JAY-16S50101822022-12-06 00:17:0343.5496-3.44666986714025Clb=3.5m/s t=-57.9C h=2.3% 401.500MHz Type=RS41-SG rdzTTGOsonde
EA1EF-14S50101822022-12-06 00:16:5643.5497-3.44773926314006Clb=3.4m/s t=-58.4C 401.50MHz Type=RS41-SG meteocampoo.es - http://radiosondy.info
EA1JAY-16S50101822022-12-06 00:16:2643.5499-3.45097956713948Clb=3.6m/s t=-58.2C h=2.4% 401.500MHz Type=RS41-SG rdzTTGOsonde
EA1EF-14S50101822022-12-06 00:16:2543.5499-3.4512936713944Clb=4.1m/s t=-58.7C 401.50MHz Type=RS41-SG meteocampoo.es - http://radiosondy.info
EA4EKH-11S50101822022-12-06 00:16:1043.55-3.45329956713910Clb=4.6m/s t=-58.2C h=2.2% p=-1.0hPa 401.501 MHz Type=RS41-SG ser=S5010182 Radiosonde
EA1EF-14S50101822022-12-06 00:15:5943.5501-3.45486976513883Clb=4.2m/s t=-58.6C 401.50MHz Type=RS41-SG meteocampoo.es - http://radiosondy.info
EA1JAY-16S50101822022-12-06 00:15:5243.5503-3.45622986913858Clb=3.6m/s t=-58.1C h=2.4% 401.500MHz Type=RS41-SG rdzTTGOsonde
EA1EF-14S50101822022-12-06 00:15:4443.5505-3.45844966913818Clb=4.7m/s t=-58.5C 401.50MHz Type=RS41-SG meteocampoo.es - http://radiosondy.info
EA4EKH-11S50101822022-12-06 00:15:3843.5506-3.46029996913786Clb=4.4m/s t=-57.8C h=2.1% p=-1.0hPa 401.501 MHz Type=RS41-SG ser=S5010182 Radiosonde
EA1JAY-16S50101822022-12-06 00:15:3643.5507-3.460991036913775Clb=4.0m/s t=-57.8C h=2.4% 401.500MHz Type=RS41-SG rdzTTGOsonde
EA1EF-14S50101822022-12-06 00:15:3143.5509-3.46219996913756Clb=4.5m/s t=-58.2C 401.50MHz Type=RS41-SG meteocampoo.es - http://radiosondy.info
EA1EF-14S50101822022-12-06 00:15:1543.5514-3.465891016513694Clb=4.0m/s t=-58.0C 401.50MHz Type=RS41-SG meteocampoo.es - http://radiosondy.info
EA1JAY-16S50101822022-12-06 00:15:1443.5514-3.465891016913694Clb=4.1m/s t=-57.4C h=2.3% 401.500MHz Type=RS41-SG rdzTTGOsonde
EA4EKH-11S50101822022-12-06 00:15:0643.5516-3.467431016313666Clb=3.9m/s t=-57.3C h=2.1% p=-1.0hPa 401.501 MHz Type=RS41-SG ser=S5010182 Radiosonde
EA1EF-14S50101822022-12-06 00:14:5543.5518-3.469361006113631Clb=4.4m/s t=-57.8C 401.50MHz Type=RS41-SG meteocampoo.es - http://radiosondy.info
EA1JAY-16S50101822022-12-06 00:14:5043.5519-3.47021006313615Clb=4.1m/s t=-57.4C h=2.3% 401.500MHz Type=RS41-SG rdzTTGOsonde
EA1EF-14S50101822022-12-06 00:14:4443.5523-3.472661076713568Clb=4.3m/s t=-57.8C 401.50MHz Type=RS41-SG meteocampoo.es - http://radiosondy.info
EA4EKH-11S50101822022-12-06 00:14:4343.5526-3.473951066513543Clb=4.2m/s t=-57.1C h=2.0% p=-1.0hPa 401.501 MHz Type=RS41-SG ser=S5010182 Radiosonde
EA1JAY-16S50101822022-12-06 00:14:4243.5527-3.47461066913531Clb=3.8m/s t=-57.0C h=2.3% 401.500MHz Type=RS41-SG rdzTTGOsonde
EA1EF-14S50101822022-12-06 00:14:4043.553-3.476181096713503Clb=3.1m/s t=-57.3C 401.50MHz Type=RS41-SG meteocampoo.es - http://radiosondy.info
EA1JAY-16S50101822022-12-06 00:14:3543.5536-3.479091056913454Clb=3.7m/s t=-56.5C h=2.3% 401.500MHz Type=RS41-SG rdzTTGOsonde
EA1EF-14S50101822022-12-06 00:14:3243.5538-3.479781066913443Clb=3.6m/s t=-56.9C 401.50MHz Type=RS41-SG meteocampoo.es - http://radiosondy.info
EA4EKH-11S50101822022-12-06 00:14:2743.554-3.480941036713423Clb=3.7m/s t=-56.3C h=2.0% p=-1.0hPa 401.501 MHz Type=RS41-SG ser=S5010182 Radiosonde
EA1EF-14S50101822022-12-06 00:14:1443.5544-3.483481036713383Clb=3.9m/s t=-56.5C 401.50MHz Type=RS41-SG meteocampoo.es - http://radiosondy.info
EA1JAY-16S50101822022-12-06 00:14:1143.5545-3.483961017013376Clb=3.4m/s t=-55.9C h=2.2% 401.500MHz Type=RS41-SG rdzTTGOsonde
EA1EF-14S50101822022-12-06 00:14:0043.5549-3.487091017213328Clb=3.5m/s t=-56.8C 401.50MHz Type=RS41-SG meteocampoo.es - http://radiosondy.info
EA4EKH-11S50101822022-12-06 00:13:5943.555-3.48804986713314Clb=3.6m/s t=-56.4C h=2.1% p=-1.0hPa 401.501 MHz Type=RS41-SG ser=S5010182 Radiosonde
EA1JAY-16S50101822022-12-06 00:13:5843.5551-3.488751017013304Clb=4.3m/s t=-56.5C h=2.4% 401.500MHz Type=RS41-SG rdzTTGOsonde
EA1EF-14S50101822022-12-06 00:13:5643.5554-3.491031047213271Clb=3.1m/s t=-57.0C 401.50MHz Type=RS41-SG meteocampoo.es - http://radiosondy.info
EA1JAY-16S50101822022-12-06 00:13:5243.5559-3.493751047013234Clb=3.2m/s t=-56.3C h=2.4% 401.500MHz Type=RS41-SG rdzTTGOsonde
EA1EF-14S50101822022-12-06 00:13:5143.556-3.494911026513216Clb=3.3m/s t=-56.8C 401.50MHz Type=RS41-SG meteocampoo.es - http://radiosondy.info
EA4EKH-11S50101822022-12-06 00:13:5043.5561-3.495581016313206Clb=4.0m/s t=-56.2C h=2.1% p=-1.0hPa 401.501 MHz Type=RS41-SG ser=S5010182 Radiosonde
EA1JAY-16S50101822022-12-06 00:13:4543.5565-3.498141016513166Clb=3.3m/s t=-56.1C h=2.4% 401.500MHz Type=RS41-SG rdzTTGOsonde
EA1EF-14S50101822022-12-06 00:13:4343.557-3.501851006713108Clb=2.8m/s t=-56.5C 401.50MHz Type=RS41-SG meteocampoo.es - http://radiosondy.info
EA1EF-14S50101822022-12-06 00:13:4043.5576-3.505381067013055Clb=2.9m/s t=-56.3C 401.50MHz Type=RS41-SG meteocampoo.es - http://radiosondy.info
EA1JAY-16S50101822022-12-06 00:13:3943.5579-3.507231047413027Clb=3.1m/s t=-55.5C h=2.5% 401.500MHz Type=RS41-SG rdzTTGOsonde
EA1JAY-16S50101822022-12-06 00:13:3743.5586-3.512081017412959Clb=4.1m/s t=-55.6C h=2.7% 401.500MHz Type=RS41-SG rdzTTGOsonde
EA4EKH-11S50101822022-12-06 00:13:3643.5593-3.51721046712890Clb=4.0m/s t=-55.7C h=2.7% p=-1.0hPa 401.501 MHz Type=RS41-SG ser=S5010182 Radiosonde
EA1EF-14S50101822022-12-06 00:13:3543.5599-3.52118987212832Clb=3.5m/s t=-56.7C 401.50MHz Type=RS41-SG meteocampoo.es - http://radiosondy.info
EA1JAY-16S50101822022-12-06 00:13:3043.56-3.522131017412819Clb=2.9m/s t=-56.2C h=3.0% 401.500MHz Type=RS41-SG rdzTTGOsonde
EA4EKH-11S50101822022-12-06 00:13:1943.5603-3.524631007212784Clb=4.0m/s t=-56.4C h=2.8% p=-1.0hPa 401.501 MHz Type=RS41-SG ser=S5010182 Radiosonde
EA1EF-14S50101822022-12-06 00:13:1743.5604-3.525131017412777Clb=3.4m/s t=-57.0C 401.50MHz Type=RS41-SG meteocampoo.es - http://radiosondy.info
EA1JAY-16S50101822022-12-06 00:13:0743.5607-3.527211037212750Clb=3.0m/s t=-56.9C h=3.2% 401.500MHz Type=RS41-SG rdzTTGOsonde
EA1EF-14S50101822022-12-06 00:13:0143.561-3.529071057012721Clb=3.2m/s t=-57.5C 401.50MHz Type=RS41-SG meteocampoo.es - http://radiosondy.info
EA1JAY-16S50101822022-12-06 00:13:0043.5616-3.531911036712678Clb=3.8m/s t=-56.9C h=3.2% 401.500MHz Type=RS41-SG rdzTTGOsonde
EA1EF-14S50101822022-12-06 00:12:5943.5623-3.537081016512600Clb=3.2m/s t=-57.3C 401.50MHz Type=RS41-SG meteocampoo.es - http://radiosondy.info
EA4EKH-11S50101822022-12-06 00:12:5843.5626-3.539241026512564Clb=4.1m/s t=-56.9C h=3.0% p=-1.0hPa 401.501 MHz Type=RS41-SG ser=S5010182 Radiosonde
EA1JAY-16S50101822022-12-06 00:12:5743.5631-3.54352966112492Clb=3.4m/s t=-56.8C h=3.5% 401.500MHz Type=RS41-SG rdzTTGOsonde
EA4EKH-11S50101822022-12-06 00:12:5643.5632-3.54592915712454Clb=3.3m/s t=-56.7C h=3.5% p=-1.0hPa 401.501 MHz Type=RS41-SG ser=S5010182 Radiosonde
EA1EF-14S50101822022-12-06 00:12:5343.5633-3.55033945412369Clb=4.2m/s t=-57.3C 401.50MHz Type=RS41-SG meteocampoo.es - http://radiosondy.info
EA1JAY-16S50101822022-12-06 00:12:4643.5634-3.55164955412343Clb=3.6m/s t=-57.0C h=4.5% 401.500MHz Type=RS41-SG rdzTTGOsonde
EA4EKH-11S50101822022-12-06 00:12:4543.5634-3.55182955212339Clb=4.1m/s t=-57.0C h=4.2% p=-1.0hPa 401.501 MHz Type=RS41-SG ser=S5010182 Radiosonde
EA1EF-14S50101822022-12-06 00:12:3343.5635-3.55318994312307Clb=2.9m/s t=-58.0C 401.50MHz Type=RS41-SG meteocampoo.es - http://radiosondy.info
EA1JAY-16S50101822022-12-06 00:12:1343.5637-3.554871053712266Clb=3.7m/s t=-57.4C h=5.1% 401.500MHz Type=RS41-SG rdzTTGOsonde
EA1EF-14S50101822022-12-06 00:12:0343.5638-3.555491064112248Clb=3.5m/s t=-58.1C 401.50MHz Type=RS41-SG meteocampoo.es - http://radiosondy.info
EA4EKH-11S50101822022-12-06 00:11:5143.564-3.556351143712222Clb=3.0m/s t=-57.7C h=5.2% p=-1.0hPa 401.501 MHz Type=RS41-SG ser=S5010182 Radiosonde
EA1JAY-16S50101822022-12-06 00:11:3443.5645-3.557581155012189Clb=5.5m/s t=-58.0C h=6.0% 401.500MHz Type=RS41-SG rdzTTGOsonde
EA1EF-14S50101822022-12-06 00:11:0643.5651-3.559871053912123Clb=3.9m/s t=-58.1C 401.50MHz Type=RS41-SG meteocampoo.es - http://radiosondy.info
EA1JAY-16S50101822022-12-06 00:10:5643.5653-3.560571064412104Clb=3.5m/s t=-57.4C h=6.4% 401.500MHz Type=RS41-SG rdzTTGOsonde
EA4EKH-11S50101822022-12-06 00:10:5543.5653-3.560861074112095Clb=3.9m/s t=-57.4C h=6.2% p=-1.0hPa 401.501 MHz Type=RS41-SG ser=S5010182 Radiosonde
EA1EF-14S50101822022-12-06 00:10:3843.5656-3.561951033912063Clb=3.3m/s t=-57.7C 401.50MHz Type=RS41-SG meteocampoo.es - http://radiosondy.info
EA1JAY-16S50101822022-12-06 00:10:1943.5658-3.563161043912030Clb=4.1m/s t=-57.0C h=7.0% 401.500MHz Type=RS41-SG rdzTTGOsonde
EA1EF-14S50101822022-12-06 00:10:0543.5659-3.564031074312002Clb=4.4m/s t=-57.4C 401.50MHz Type=RS41-SG meteocampoo.es - http://radiosondy.info
EA4EKH-11S50101822022-12-06 00:09:5443.5661-3.564851044311978Clb=3.4m/s t=-56.8C h=7.7% p=-1.0hPa 401.501 MHz Type=RS41-SG ser=S5010182 Radiosonde
EA1JAY-16S50101822022-12-06 00:09:3743.5663-3.566011084311948Clb=4.4m/s t=-56.7C h=8.4% 401.500MHz Type=RS41-SG rdzTTGOsonde
EA1EF-14S50101822022-12-06 00:09:3543.5664-3.56631084811940Clb=3.4m/s t=-57.3C 401.50MHz Type=RS41-SG meteocampoo.es - http://radiosondy.info
EA1EF-14S50101822022-12-06 00:09:0543.567-3.568841085211880Clb=3.5m/s t=-57.5C 401.50MHz Type=RS41-SG meteocampoo.es - http://radiosondy.info
EA1JAY-16S50101822022-12-06 00:08:5743.5671-3.569371065211869Clb=3.2m/s t=-57.2C h=10.7% 401.500MHz Type=RS41-SG rdzTTGOsonde
EA1EF-14S50101822022-12-06 00:08:3643.5674-3.571591044411821Clb=3.6m/s t=-59.0C 401.50MHz Type=RS41-SG meteocampoo.es - http://radiosondy.info
EA1JAY-16S50101822022-12-06 00:08:1743.5677-3.573081014611783Clb=3.4m/s t=-58.2C h=11.9% 401.500MHz Type=RS41-SG rdzTTGOsonde
EA1EF-14S50101822022-12-06 00:08:0543.5678-3.573921053511761Clb=3.1m/s t=-58.6C 401.50MHz Type=RS41-SG meteocampoo.es - http://radiosondy.info
EA4EKH-11S50101822022-12-06 00:07:5943.5679-3.574411003311746Clb=3.6m/s t=-58.4C h=12.1% p=-1.0hPa 401.501 MHz Type=RS41-SG ser=S5010182 Radiosonde
EA1JAY-16S50101822022-12-06 00:07:3943.568-3.57561983311709Clb=3.1m/s t=-58.8C h=12.9% 401.500MHz Type=RS41-SG rdzTTGOsonde
EA1EF-14S50101822022-12-06 00:07:3743.5681-3.575831033711702Clb=3.2m/s t=-59.4C 401.50MHz Type=RS41-SG meteocampoo.es - http://radiosondy.info
EA1EF-14S50101822022-12-06 00:07:0843.5684-3.577881023711644Clb=3.4m/s t=-59.5C 401.50MHz Type=RS41-SG meteocampoo.es - http://radiosondy.info
EA4EKH-11S50101822022-12-06 00:07:0443.5685-3.578271023711634Clb=4.0m/s t=-58.9C h=13.4% p=-1.0hPa 401.501 MHz Type=RS41-SG ser=S5010182 Radiosonde
EA1JAY-16S50101822022-12-06 00:07:0243.5685-3.578271033711634Clb=4.0m/s t=-58.9C h=13.7% 401.500MHz Type=RS41-SG rdzTTGOsonde
EA1EF-14S50101822022-12-06 00:06:4243.5688-3.579871063511587Clb=3.7m/s t=-59.1C 401.50MHz Type=RS41-SG meteocampoo.es - http://radiosondy.info
EA1JAY-16S50101822022-12-06 00:06:2743.569-3.580771093511557Clb=3.6m/s t=-58.4C h=14.3% 401.500MHz Type=RS41-SG rdzTTGOsonde
EA1EF-14S50101822022-12-06 00:06:1543.5693-3.581651153911528Clb=2.6m/s t=-59.2C 401.50MHz Type=RS41-SG meteocampoo.es - http://radiosondy.info
EA4EKH-11S50101822022-12-06 00:06:1243.5694-3.581871133711519Clb=4.0m/s t=-58.6C h=13.7% p=-1.0hPa 401.501 MHz Type=RS41-SG ser=S5010182 Radiosonde
EA1JAY-16S50101822022-12-06 00:05:4743.5699-3.583181234611479Clb=3.1m/s t=-58.8C h=14.2% 401.500MHz Type=RS41-SG rdzTTGOsonde
EA1EF-14S50101822022-12-06 00:05:4443.5701-3.583571234811469Clb=3.1m/s t=-59.6C 401.50MHz Type=RS41-SG meteocampoo.es - http://radiosondy.info
EA1EF-14S50101822022-12-06 00:05:1443.571-3.585951195211412Clb=3.8m/s t=-60.2C 401.50MHz Type=RS41-SG meteocampoo.es - http://radiosondy.info
EA4EKH-11S50101822022-12-06 00:05:1343.5711-3.586111145211408Clb=4.0m/s t=-59.6C h=14.7% p=-1.0hPa 401.501 MHz Type=RS41-SG ser=S5010182 Radiosonde
EA1JAY-16S50101822022-12-06 00:05:0943.5711-3.586281125411405Clb=2.8m/s t=-59.6C h=14.9% 401.500MHz Type=RS41-SG rdzTTGOsonde
EA1EF-14S50101822022-12-06 00:04:4643.5718-3.588531124811356Clb=4.3m/s t=-59.9C 401.50MHz Type=RS41-SG meteocampoo.es - http://radiosondy.info
EA1JAY-16S50101822022-12-06 00:04:3543.5721-3.589431144811336Clb=3.7m/s t=-59.2C h=14.4% 401.500MHz Type=RS41-SG rdzTTGOsonde
EA1EF-14S50101822022-12-06 00:04:1843.5725-3.590931134411300Clb=3.1m/s t=-59.6C 401.50MHz Type=RS41-SG meteocampoo.es - http://radiosondy.info
EA1JAY-16S50101822022-12-06 00:04:0043.573-3.592471104311261Clb=3.7m/s t=-58.9C h=13.3% 401.500MHz Type=RS41-SG rdzTTGOsonde
EA1EF-14S50101822022-12-06 00:03:5643.5732-3.593121163911243Clb=3.7m/s t=-59.4C 401.50MHz Type=RS41-SG meteocampoo.es - http://radiosondy.info
EA4EKH-11S50101822022-12-06 00:03:4243.5737-3.594981093711192Clb=3.2m/s t=-58.4C h=13.3% p=-1.0hPa 401.501 MHz Type=RS41-SG ser=S5010182 Radiosonde
EA1JAY-16S50101822022-12-06 00:03:4043.5737-3.594981113911192Clb=3.2m/s t=-58.4C h=13.6% 401.500MHz Type=RS41-SG rdzTTGOsonde
EA1EF-14S50101822022-12-06 00:03:2743.5742-3.597131073311128Clb=3.4m/s t=-58.5C 401.50MHz Type=RS41-SG meteocampoo.es - http://radiosondy.info
EA1JAY-16S50101822022-12-06 00:03:2343.5742-3.597551003011115Clb=3.0m/s t=-58.0C h=14.2% 401.500MHz Type=RS41-SG rdzTTGOsonde
EA4EKH-11S50101822022-12-06 00:03:1443.5744-3.598671043111082Clb=3.5m/s t=-273.0C h=-1.0% p=-1.0hPa 401.501 MHz Type=RS41-SG ser=S5010182 Radiosonde
EA1EF-14S50101822022-12-06 00:03:1143.5744-3.598891043511075Clb=2.9m/s t=-58.8C 401.50MHz Type=RS41-SG meteocampoo.es - http://radiosondy.info
EA1JAY-16S50101822022-12-06 00:02:5943.5746-3.599791073711047Clb=3.4m/s t=-58.1C h=15.3% 401.500MHz Type=RS41-SG rdzTTGOsonde
EA1EF-14S50101822022-12-06 00:02:5243.5748-3.600771073711019Clb=4.3m/s t=-58.6C 401.50MHz Type=RS41-SG meteocampoo.es - http://radiosondy.info
EA4EKH-11S50101822022-12-06 00:02:4043.5751-3.602421053710973Clb=3.0m/s t=-273.0C h=-1.0% p=-1.0hPa 401.501 MHz Type=RS41 ser=S5010182 Radiosonde
EA1JAY-16S50101822022-12-06 00:02:3843.5751-3.602421073910973Clb=3.0m/s t=-57.8C h=14.9% 401.500MHz Type=RS41-SG rdzTTGOsonde
EA1EF-14S50101822022-12-06 00:02:3543.5753-3.602921063710959Clb=3.4m/s t=-58.3C 401.50MHz Type=RS41-SG meteocampoo.es - http://radiosondy.info
EA1EF-14S50101822022-12-06 00:02:1943.5756-3.604881103110899Clb=3.0m/s t=-57.9C 401.50MHz Type=RS41-SG meteocampoo.es - http://radiosondy.info
EA1JAY-16S50101822022-12-06 00:02:1843.5757-3.605011093910896Clb=3.3m/s t=-57.3C h=14.3% 401.500MHz Type=RS41-SG rdzTTGOsonde
EA1JAY-16S50101822022-12-06 00:01:5643.576-3.60727933510820Clb=3.6m/s t=-57.0C h=14.1% 401.500MHz Type=RS41-SG rdzTTGOsonde
EA1EF-14S50101822022-12-06 00:01:5343.5761-3.60774972210801Clb=3.9m/s t=-57.5C 401.50MHz Type=RS41-SG meteocampoo.es - http://radiosondy.info
EA1EF-14S50101822022-12-06 00:01:3643.5761-3.60901912410742Clb=3.1m/s t=-57.0C 401.50MHz Type=RS41-SG meteocampoo.es - http://radiosondy.info
EA1JAY-16S50101822022-12-06 00:01:3543.5761-3.60901912410741Clb=3.2m/s t=-56.4C h=13.8% 401.500MHz Type=RS41-SG rdzTTGOsonde
EA1EF-14S50101822022-12-06 00:01:2343.5762-3.610361062610683Clb=3.5m/s t=-56.5C 401.50MHz Type=RS41-SG meteocampoo.es - http://radiosondy.info
EA1JAY-16S50101822022-12-06 00:01:1543.5762-3.6108962410665Clb=3.9m/s t=-55.9C h=13.2% 401.500MHz Type=RS41-SG rdzTTGOsonde
EA1EF-14S50101822022-12-06 00:01:0443.5763-3.611761072410626Clb=3.4m/s t=-56.2C 401.50MHz Type=RS41-SG meteocampoo.es - http://radiosondy.info
EA1EF-14S50101822022-12-06 00:00:5543.5768-3.615331072210457Clb=3.4m/s t=-55.1C 401.50MHz Type=RS41-SG meteocampoo.es - http://radiosondy.info
EA1JAY-16S50101822022-12-06 00:00:5443.5769-3.615551002210446Clb=3.0m/s t=-54.5C h=12.4% 401.500MHz Type=RS41-SG rdzTTGOsonde
EA1EF-14S50101822022-12-06 00:00:5243.5771-3.616531112210400Clb=3.8m/s t=-54.8C 401.50MHz Type=RS41-SG meteocampoo.es - http://radiosondy.info
EA1JAY-16S50101822022-12-06 00:00:5143.5772-3.617031122210375Clb=4.0m/s t=-54.1C h=11.9% 401.500MHz Type=RS41-SG rdzTTGOsonde
EA1EF-14S50101822022-12-06 00:00:4843.5773-3.617691102210343Clb=3.2m/s t=-54.5C 401.50MHz Type=RS41-SG meteocampoo.es - http://radiosondy.info
EA1JAY-16S50101822022-12-06 00:00:4543.5776-3.618461142210304Clb=4.0m/s t=-53.7C h=12.1% 401.500MHz Type=RS41-SG rdzTTGOsonde
EA1EF-14S50101822022-12-06 00:00:4443.5777-3.618791222410286Clb=3.1m/s t=-54.1C 401.50MHz Type=RS41-SG meteocampoo.es - http://radiosondy.info
EA1EF-14S50101822022-12-06 00:00:4043.5781-3.619991162410231Clb=3.2m/s t=-53.6C 401.50MHz Type=RS41-SG meteocampoo.es - http://radiosondy.info
EA1JAY-16S50101822022-12-06 00:00:3943.5781-3.619991172410231Clb=3.2m/s t=-53.1C h=11.8% 401.500MHz Type=RS41-SG rdzTTGOsonde
EA1EF-14S50101822022-12-06 00:00:3643.5786-3.621181152810178Clb=3.8m/s t=-53.3C 401.50MHz Type=RS41-SG meteocampoo.es - http://radiosondy.info
EA1EF-14S50101822022-12-06 00:00:3343.5791-3.62251252810122Clb=3.8m/s t=-52.9C 401.50MHz Type=RS41-SG meteocampoo.es - http://radiosondy.info
EA1JAY-16S50101822022-12-06 00:00:3243.5794-3.623221152810093Clb=3.1m/s t=-52.2C h=11.1% 401.500MHz Type=RS41-SG rdzTTGOsonde
EA1JAY-16S50101822022-12-06 00:00:3143.5802-3.624971233310024Clb=2.9m/s t=-51.7C h=9.0% 401.500MHz Type=RS41-SG rdzTTGOsonde
EA1EF-14S50101822022-12-06 00:00:2243.581-3.62658119289958Clb=3.5m/s t=-51.7C 401.50MHz Type=RS41-SG meteocampoo.es - http://radiosondy.info
EA1JAY-16S50101822022-12-06 00:00:1843.5811-3.62681120249948Clb=2.8m/s t=-51.0C h=8.2% 401.500MHz Type=RS41-SG rdzTTGOsonde
EA1EF-14S50101822022-12-05 23:59:5243.5816-3.62789117289905Clb=3.2m/s t=-51.1C 401.50MHz Type=RS41-SG meteocampoo.es - http://radiosondy.info
EA1JAY-16S50101822022-12-05 23:59:3543.5819-3.62864125309873Clb=3.9m/s t=-50.3C h=8.2% 401.500MHz Type=RS41-SG rdzTTGOsonde
EA1EF-14S50101822022-12-05 23:59:2443.5822-3.6292123309849Clb=3.7m/s t=-50.6C 401.50MHz Type=RS41-SG meteocampoo.es - http://radiosondy.info
EA1JAY-16S50101822022-12-05 23:59:0043.5827-3.63035121319801Clb=4.0m/s t=-49.6C h=7.9% 401.500MHz Type=RS41-SG rdzTTGOsonde
EA1EF-14S50101822022-12-05 23:58:5643.5828-3.63062119319788Clb=3.4m/s t=-50.1C 401.50MHz Type=RS41-SG meteocampoo.es - http://radiosondy.info
EA1EF-14S50101822022-12-05 23:58:2643.5835-3.63237121319722Clb=1.4m/s t=-49.5C 401.50MHz Type=RS41-SG meteocampoo.es - http://radiosondy.info
EA1JAY-16S50101822022-12-05 23:58:2443.5835-3.63237122379721Clb=1.4m/s t=-49.0C h=11.1% 401.500MHz Type=RS41-SG rdzTTGOsonde
EA1EF-14S50101822022-12-05 23:57:5743.5841-3.63393112309651Clb=3.5m/s t=-49.5C 401.50MHz Type=RS41-SG meteocampoo.es - http://radiosondy.info
EA1JAY-16S50101822022-12-05 23:57:4743.5843-3.63442113319633Clb=2.9m/s t=-48.9C h=13.0% 401.500MHz Type=RS41-SG rdzTTGOsonde
EA1EF-14S50101822022-12-05 23:57:2943.5846-3.63538118289590Clb=3.5m/s t=-49.3C 401.50MHz Type=RS41-SG meteocampoo.es - http://radiosondy.info
EA1JAY-16S50101822022-12-05 23:57:1143.5848-3.63626117289555Clb=3.3m/s t=-48.5C h=12.7% 401.500MHz Type=RS41-SG rdzTTGOsonde
EA1JAY-16S50101822022-12-05 23:56:3343.5855-3.63808128289483Clb=2.7m/s t=-48.1C h=13.0% 401.500MHz Type=RS41-SG rdzTTGOsonde
EA1JAY-16S50101822022-12-05 23:56:0243.586-3.6402597319395Clb=3.7m/s t=-48.5C h=15.4% 401.500MHz Type=RS41-SG rdzTTGOsonde
EA1JAY-16S50101822022-12-05 23:56:0143.586-3.6424188399322Clb=3.3m/s t=-48.4C h=17.6% 401.500MHz Type=RS41-SG rdzTTGOsonde
EA1EF-14S50101822022-12-05 23:56:0043.5858-3.6445775439259Clb=3.3m/s t=-48.8C 401.50MHz Type=RS41-SG meteocampoo.es - http://radiosondy.info
EA1EF-14S50101822022-12-05 23:55:5743.5854-3.6469967509176Clb=5.1m/s t=-48.3C 401.50MHz Type=RS41-SG meteocampoo.es - http://radiosondy.info
EA1JAY-16S50101822022-12-05 23:55:4843.5851-3.6483671529134Clb=4.7m/s t=-47.6C h=23.6% 401.500MHz Type=RS41-SG rdzTTGOsonde
EA1EF-14S50101822022-12-05 23:55:4043.5847-3.6494962549106Clb=4.8m/s t=-48.0C 401.50MHz Type=RS41-SG meteocampoo.es - http://radiosondy.info
EA1JAY-16S50101822022-12-05 23:55:1443.5839-3.6518262579051Clb=4.6m/s t=-47.4C h=30.3% 401.500MHz Type=RS41-SG rdzTTGOsonde
EA1EF-14S50101822022-12-05 23:55:1243.5838-3.6521763569044Clb=4.0m/s t=-47.9C 401.50MHz Type=RS41-SG meteocampoo.es - http://radiosondy.info
EA1JAY-16S50101822022-12-05 23:54:4243.5824-3.6555562638975Clb=3.4m/s t=-46.9C h=34.3% 401.500MHz Type=RS41-SG rdzTTGOsonde
EA1JAY-16S50101822022-12-05 23:54:0943.5809-3.659362678908Clb=3.6m/s t=-46.4C h=40.2% 401.500MHz Type=RS41-SG rdzTTGOsonde
EA1JAY-16S50101822022-12-05 23:53:3543.579-3.6633658698828Clb=5.0m/s t=-45.6C h=47.2% 401.500MHz Type=RS41-SG rdzTTGOsonde
EA1EF-14S50101822022-12-05 23:53:2243.5782-3.6651859698793Clb=4.0m/s t=-45.9C 401.50MHz Type=RS41-SG meteocampoo.es - http://radiosondy.info
EA1JAY-16S50101822022-12-05 23:53:0343.5772-3.667356698751Clb=3.6m/s t=-45.0C h=60.6% 401.500MHz Type=RS41-SG rdzTTGOsonde
EA1EF-14S50101822022-12-05 23:52:5643.5767-3.6682957708733Clb=3.7m/s t=-45.4C 401.50MHz Type=RS41-SG meteocampoo.es - http://radiosondy.info
EA1JAY-16S50101822022-12-05 23:52:2843.5752-3.6714656708672Clb=3.0m/s t=-44.3C h=64.0% 401.500MHz Type=RS41-SG rdzTTGOsonde
EA1EF-14S50101822022-12-05 23:52:2543.575-3.6718453698665Clb=3.6m/s t=-44.8C 401.50MHz Type=RS41-SG meteocampoo.es - http://radiosondy.info
EA1EF-14S50101822022-12-05 23:52:0043.5735-3.6746956708609Clb=2.9m/s t=-44.2C 401.50MHz Type=RS41-SG meteocampoo.es - http://radiosondy.info
EA1JAY-16S50101822022-12-05 23:51:5643.5732-3.6753260748598Clb=3.1m/s t=-43.6C h=65.7% 401.500MHz Type=RS41-SG rdzTTGOsonde
EA1EF-14S50101822022-12-05 23:51:4443.5718-3.6778758708551Clb=4.0m/s t=-43.7C 401.50MHz Type=RS41-SG meteocampoo.es - http://radiosondy.info
EA1JAY-16S50101822022-12-05 23:51:3543.571-3.6794652708522Clb=3.9m/s t=-42.9C h=64.6% 401.500MHz Type=RS41-SG rdzTTGOsonde
EA1EF-14S50101822022-12-05 23:51:2943.5702-3.6809555708491Clb=3.5m/s t=-43.1C 401.50MHz Type=RS41-SG meteocampoo.es - http://radiosondy.info
EA1EF-14S50101822022-12-05 23:51:1743.5685-3.6841254678424Clb=3.0m/s t=-42.5C 401.50MHz Type=RS41-SG meteocampoo.es - http://radiosondy.info
EA1EF-14S50101822022-12-05 23:51:1643.5669-3.6870155678351Clb=3.1m/s t=-41.8C 401.50MHz Type=RS41-SG meteocampoo.es - http://radiosondy.info
EA1EF-14S50101822022-12-05 23:51:1543.5652-3.6898350658291Clb=4.0m/s t=-41.2C 401.50MHz Type=RS41-SG meteocampoo.es - http://radiosondy.info
EA1EF-14S50101822022-12-05 23:51:1443.5633-3.6928446658227Clb=3.7m/s t=-40.8C 401.50MHz Type=RS41-SG meteocampoo.es - http://radiosondy.info
EA1EF-14S50101822022-12-05 23:51:1243.5615-3.6953844638167Clb=3.4m/s t=-40.3C 401.50MHz Type=RS41-SG meteocampoo.es - http://radiosondy.info
EA1JAY-16S50101822022-12-05 23:50:5943.5602-3.697246658125Clb=4.2m/s t=-39.3C h=37.0% 401.500MHz Type=RS41-SG rdzTTGOsonde
EA1EF-14S50101822022-12-05 23:50:5443.5597-3.6978448638110Clb=4.0m/s t=-39.7C 401.50MHz Type=RS41-SG meteocampoo.es - http://radiosondy.info
EA1EF-14S50101822022-12-05 23:50:2943.558-3.700348598055Clb=3.8m/s t=-39.4C 401.50MHz Type=RS41-SG meteocampoo.es - http://radiosondy.info
EA1JAY-16S50101822022-12-05 23:50:2743.5579-3.7004548638051Clb=3.4m/s t=-38.8C h=41.0% 401.500MHz Type=RS41-SG rdzTTGOsonde
EA1EF-14S50101822022-12-05 23:50:0343.5564-3.7026348567998Clb=2.9m/s t=-38.9C 401.50MHz Type=RS41-SG meteocampoo.es - http://radiosondy.info
EA1JAY-16S50101822022-12-05 23:49:5443.5559-3.7033646597981Clb=2.7m/s t=-38.3C h=44.3% 401.500MHz Type=RS41-SG rdzTTGOsonde
EA1EF-14S50101822022-12-05 23:49:3943.5549-3.7047949547942Clb=3.1m/s t=-38.4C 401.50MHz Type=RS41-SG meteocampoo.es - http://radiosondy.info
EA1JAY-16S50101822022-12-05 23:49:2243.554-3.7061354527907Clb=3.2m/s t=-37.6C h=44.4% 401.500MHz Type=RS41-SG rdzTTGOsonde
EA1EF-14S50101822022-12-05 23:49:1343.5534-3.7069949507886Clb=4.7m/s t=-38.0C 401.50MHz Type=RS41-SG meteocampoo.es - http://radiosondy.info
EA1JAY-16S50101822022-12-05 23:48:4943.5522-3.7087148507836Clb=3.6m/s t=-37.0C h=40.3% 401.500MHz Type=RS41-SG rdzTTGOsonde
EA1EF-14S50101822022-12-05 23:48:4743.552-3.7089648487828Clb=3.2m/s t=-37.4C 401.50MHz Type=RS41-SG meteocampoo.es - http://radiosondy.info
EA1EF-14S50101822022-12-05 23:48:2143.5508-3.7109750487771Clb=4.0m/s t=-36.9C 401.50MHz Type=RS41-SG meteocampoo.es - http://radiosondy.info
EA1JAY-16S50101822022-12-05 23:48:1743.5506-3.7112149487764Clb=3.8m/s t=-36.3C h=38.4% 401.500MHz Type=RS41-SG rdzTTGOsonde
EA1EF-14S50101822022-12-05 23:47:5843.5495-3.7129848507715Clb=3.3m/s t=-36.3C 401.50MHz Type=RS41-SG meteocampoo.es - http://radiosondy.info
EA1JAY-16S50101822022-12-05 23:47:4743.5487-3.7142853487680Clb=2.7m/s t=-35.5C h=26.1% 401.500MHz Type=RS41-SG rdzTTGOsonde
EA1EF-14S50101822022-12-05 23:47:4043.5481-3.7153448447653Clb=3.3m/s t=-35.9C 401.50MHz Type=RS41-SG meteocampoo.es - http://radiosondy.info
EA1JAY-16S50101822022-12-05 23:47:2843.5472-3.7167954487611Clb=3.4m/s t=-35.0C h=25.0% 401.500MHz Type=RS41-SG rdzTTGOsonde
EA1EF-14S50101822022-12-05 23:47:1543.5463-3.7184255437567Clb=2.9m/s t=-35.3C 401.50MHz Type=RS41-SG meteocampoo.es - http://radiosondy.info
EA1JAY-16S50101822022-12-05 23:47:0643.5458-3.7192250437544Clb=2.2m/s t=-34.6C h=34.8% 401.500MHz Type=RS41-SG rdzTTGOsonde
EA1EF-14S50101822022-12-05 23:46:5843.5452-3.720354447516Clb=3.3m/s t=-34.9C 401.50MHz Type=RS41-SG meteocampoo.es - http://radiosondy.info
EA1JAY-16S50101822022-12-05 23:46:5043.5445-3.7216157467482Clb=2.9m/s t=-34.2C h=55.3% 401.500MHz Type=RS41-SG rdzTTGOsonde
EA1JAY-16S50101822022-12-05 23:46:4943.5432-3.7242351467419Clb=2.9m/s t=-33.8C h=81.9% 401.500MHz Type=RS41-SG rdzTTGOsonde
EA1EF-14S50101822022-12-05 23:46:4843.542-3.7264158467368Clb=3.8m/s t=-33.9C 401.50MHz Type=RS41-SG meteocampoo.es - http://radiosondy.info
EA1EF-14S50101822022-12-05 23:46:4643.5408-3.7284367467306Clb=4.5m/s t=-33.3C 401.50MHz Type=RS41-SG meteocampoo.es - http://radiosondy.info
EA1JAY-16S50101822022-12-05 23:46:3943.5403-3.7293653487265Clb=6.1m/s t=-32.4C h=83.9% 401.500MHz Type=RS41-SG rdzTTGOsonde
EA1EF-14S50101822022-12-05 23:46:3143.5396-3.7303448507232Clb=2.7m/s t=-32.6C 401.50MHz Type=RS41-SG meteocampoo.es - http://radiosondy.info
EA1JAY-16S50101822022-12-05 23:46:0943.5386-3.7320352507189Clb=3.2m/s t=-31.6C h=85.9% 401.500MHz Type=RS41-SG rdzTTGOsonde
EA1EF-14S50101822022-12-05 23:46:0543.5383-3.7324250507179Clb=2.4m/s t=-32.1C 401.50MHz Type=RS41-SG meteocampoo.es - http://radiosondy.info
EA1EF-14S50101822022-12-05 23:45:4043.5371-3.7345551527133Clb=3.2m/s t=-31.7C 401.50MHz Type=RS41-SG meteocampoo.es - http://radiosondy.info
EA1JAY-16S50101822022-12-05 23:45:3643.5369-3.7348456527126Clb=3.2m/s t=-31.0C h=83.8% 401.500MHz Type=RS41-SG rdzTTGOsonde
EA1EF-14S50101822022-12-05 23:45:1543.5358-3.7367749487081Clb=3.6m/s t=-31.2C 401.50MHz Type=RS41-SG meteocampoo.es - http://radiosondy.info
EA1JAY-16S50101822022-12-05 23:45:0443.5352-3.7376849547059Clb=2.5m/s t=-30.4C h=80.6% 401.500MHz Type=RS41-SG rdzTTGOsonde
EA1JAY-16S50101822022-12-05 23:44:3243.5336-3.7404450466995Clb=3.1m/s t=-29.8C h=79.9% 401.500MHz Type=RS41-SG rdzTTGOsonde
EA1JAY-16S50101822022-12-05 23:44:0143.5319-3.7431957506927Clb=2.6m/s t=-29.2C h=77.8% 401.500MHz Type=RS41-SG rdzTTGOsonde
EA1JAY-16S50101822022-12-05 23:43:4143.5303-3.7459254506865Clb=2.9m/s t=-28.6C h=74.4% 401.500MHz Type=RS41-SG rdzTTGOsonde
EA1JAY-16S50101822022-12-05 23:43:2143.5288-3.7485853506806Clb=2.4m/s t=-28.0C h=72.2% 401.500MHz Type=RS41-SG rdzTTGOsonde
EA1JAY-16S50101822022-12-05 23:43:0043.5272-3.7514254566743Clb=3.4m/s t=-27.6C h=77.6% 401.500MHz Type=RS41-SG rdzTTGOsonde
EA1JAY-16S50101822022-12-05 23:42:4143.5256-3.7540154486676Clb=3.0m/s t=-27.0C h=74.8% 401.500MHz Type=RS41-SG rdzTTGOsonde
EA1EF-14S50101822022-12-05 23:42:2843.5229-3.7588358416547Clb=4.3m/s t=-26.6C 401.50MHz Type=RS41-SG meteocampoo.es - http://radiosondy.info
EA1JAY-16S50101822022-12-05 23:42:2743.5226-3.7595359416524Clb=3.5m/s t=-25.8C h=67.5% 401.500MHz Type=RS41-SG rdzTTGOsonde
EA1JAY-16S50101822022-12-05 23:42:2143.5214-3.7618254396459Clb=3.2m/s t=-25.2C h=63.2% 401.500MHz Type=RS41-SG rdzTTGOsonde
EA1EF-14S50101822022-12-05 23:42:1743.5211-3.762457416442Clb=3.1m/s t=-25.7C 401.50MHz Type=RS41-SG meteocampoo.es - http://radiosondy.info
EA1EF-14S50101822022-12-05 23:41:5643.5202-3.7641456396395Clb=3.3m/s t=-25.9C 401.50MHz Type=RS41-SG meteocampoo.es - http://radiosondy.info
EA1JAY-16S50101822022-12-05 23:41:5443.5202-3.7642656416392Clb=3.3m/s t=-25.3C h=80.2% 401.500MHz Type=RS41-SG rdzTTGOsonde
EA1JAY-16S50101822022-12-05 23:41:2443.5191-3.7666561436330Clb=3.6m/s t=-25.0C h=85.0% 401.500MHz Type=RS41-SG rdzTTGOsonde
EA1JAY-16S50101822022-12-05 23:40:5543.5181-3.7689556396265Clb=2.6m/s t=-24.5C h=88.6% 401.500MHz Type=RS41-SG rdzTTGOsonde
EA1EF-14S50101822022-12-05 23:40:4643.5177-3.7697164336241Clb=3.6m/s t=-25.1C 401.50MHz Type=RS41-SG meteocampoo.es - http://radiosondy.info
EA1JAY-16S50101822022-12-05 23:40:2343.5171-3.7710568306177Clb=6.5m/s t=-23.9C h=90.7% 401.500MHz Type=RS41-SG rdzTTGOsonde
EA1EF-14S50101822022-12-05 23:40:2243.5171-3.7712562316165Clb=6.1m/s t=-24.4C 401.50MHz Type=RS41-SG meteocampoo.es - http://radiosondy.info
EA1EF-14S50101822022-12-05 23:40:0043.5164-3.7727268336103Clb=4.5m/s t=-23.9C 401.50MHz Type=RS41-SG meteocampoo.es - http://radiosondy.info
EA1JAY-16S50101822022-12-05 23:39:5643.5164-3.7730166316091Clb=3.5m/s t=-23.2C h=90.8% 401.500MHz Type=RS41-SG rdzTTGOsonde
EA1EF-14S50101822022-12-05 23:39:4543.5158-3.7740967246045Clb=7.0m/s t=-23.4C 401.50MHz Type=RS41-SG meteocampoo.es - http://radiosondy.info
EA1JAY-16S50101822022-12-05 23:39:3543.5155-3.7747358226009Clb=4.3m/s t=-22.5C h=87.6% 401.500MHz Type=RS41-SG rdzTTGOsonde
EA1EF-14S50101822022-12-05 23:39:3043.5153-3.7751552245987Clb=4.1m/s t=-22.9C 401.50MHz Type=RS41-SG meteocampoo.es - http://radiosondy.info
EA1JAY-16S50101822022-12-05 23:39:1643.5148-3.7761154245928Clb=3.5m/s t=-21.8C h=85.7% 401.500MHz Type=RS41-SG rdzTTGOsonde
EA1EF-14S50101822022-12-05 23:39:1543.5148-3.7762455225921Clb=4.4m/s t=-22.3C 401.50MHz Type=RS41-SG meteocampoo.es - http://radiosondy.info
EA1EF-14S50101822022-12-05 23:38:5843.5142-3.7772454205854Clb=4.4m/s t=-21.7C 401.50MHz Type=RS41-SG meteocampoo.es - http://radiosondy.info
EA1JAY-16S50101822022-12-05 23:38:5443.5141-3.7774257205844Clb=4.6m/s t=-21.0C h=83.2% 401.500MHz Type=RS41-SG rdzTTGOsonde
EA1EF-14S50101822022-12-05 23:38:4243.5137-3.7781247205797Clb=3.4m/s t=-21.4C 401.50MHz Type=RS41-SG meteocampoo.es - http://radiosondy.info
EA1JAY-16S50101822022-12-05 23:38:3443.5134-3.7785149205770Clb=3.4m/s t=-20.6C h=86.6% 401.500MHz Type=RS41-SG rdzTTGOsonde
EA1EF-14S50101822022-12-05 23:38:2643.5131-3.7789651175736Clb=4.0m/s 401.50MHz Type=RS41-SG meteocampoo.es - http://radiosondy.info
EA1JAY-16S50101822022-12-05 23:38:1543.5127-3.7794934225697Clb=4.1m/s t=-20.0C h=85.6% 401.500MHz Type=RS41-SG rdzTTGOsonde
EA1JAY-16S50101822022-12-05 23:37:5943.5118-3.7803621225620Clb=5.0m/s t=-19.5C h=85.8% 401.500MHz Type=RS41-SG rdzTTGOsonde
EA1JAY-16S50101822022-12-05 23:37:5843.5109-3.7810741225538Clb=4.5m/s t=-19.1C h=90.4% 401.500MHz Type=RS41-SG rdzTTGOsonde
EA1JAY-16S50101822022-12-05 23:37:4743.51-3.781521695430Clb=5.3m/s t=-18.6C h=93.2% 401.500MHz Type=RS41-SG rdzTTGOsonde
EA1JAY-16S50101822022-12-05 23:37:1343.5094-3.78168895327Clb=5.2m/s t=-17.8C h=94.8% 401.500MHz Type=RS41-SG rdzTTGOsonde
EA1JAY-16S50101822022-12-05 23:36:4143.5089-3.781766465228Clb=4.7m/s t=-17.0C h=91.1% 401.500MHz Type=RS41-SG rdzTTGOsonde
EA1EF-14S50101822022-12-05 23:36:1643.5086-3.7817131875135Clb=5.3m/s 401.50MHz Type=RS41-SG meteocampoo.es - http://radiosondy.info
EA1JAY-16S50101822022-12-05 23:36:1243.5085-3.78168355135126Clb=5.3m/s t=-16.2C h=88.2% 401.500MHz Type=RS41-SG rdzTTGOsonde
EA1EF-14S50101822022-12-05 23:35:5643.5085-3.781886175041Clb=6.5m/s 401.50MHz Type=RS41-SG meteocampoo.es - http://radiosondy.info
EA1JAY-16S50101822022-12-05 23:35:4843.5084-3.7819936095006Clb=4.9m/s t=-15.3C h=87.0% 401.500MHz Type=RS41-SG rdzTTGOsonde
EA1EF-14S50101822022-12-05 23:35:4043.5083-3.782041494958Clb=5.9m/s Type=RS41-SG meteocampoo.es - http://radiosondy.info
EA1JAY-16S50101822022-12-05 23:35:2843.508-3.782222694896Clb=3.9m/s t=-14.4C h=88.8% 401.500MHz Type=RS41-SG rdzTTGOsonde
EA1JAY-16S50101822022-12-05 23:35:0943.5077-3.782414974812Clb=4.7m/s t=-13.8C h=86.1% 401.500MHz Type=RS41-SG rdzTTGOsonde
EA1EF-14S50101822022-12-05 23:34:5543.5075-3.782515044761Clb=2.8m/s Type=RS41-SG meteocampoo.es - http://radiosondy.info
EA1JAY-16S50101822022-12-05 23:34:4743.5075-3.7825633644737Clb=3.8m/s t=-13.4C h=89.2% 401.500MHz Type=RS41-SG rdzTTGOsonde
EA1EF-14S50101822022-12-05 23:34:3943.5074-3.782563644704Clb=3.7m/s Type=RS41-SG meteocampoo.es - http://radiosondy.info
EA1JAY-16S50101822022-12-05 23:34:2843.5073-3.782595424665Clb=3.8m/s t=-12.8C h=86.9% 401.500MHz Type=RS41-SG rdzTTGOsonde
EA1JAY-16S50101822022-12-05 23:34:0643.5072-3.782633024589Clb=4.6m/s t=-12.2C h=83.9% 401.500MHz Type=RS41-SG rdzTTGOsonde
EA1JAY-16S50101822022-12-05 23:33:4643.5071-3.782816224519Clb=3.2m/s t=-11.8C h=87.0% 401.500MHz Type=RS41-SG rdzTTGOsonde
EA1JAY-16S50101822022-12-05 23:33:3743.5069-3.782793324445Clb=4.4m/s t=-11.5C h=91.0% 401.500MHz Type=RS41-SG rdzTTGOsonde
EA1JAY-16S50101822022-12-05 23:33:2543.5068-3.7827636044374Clb=2.8m/s t=-11.3C h=94.1% 401.500MHz Type=RS41-SG rdzTTGOsonde
EA1EF-14S50101822022-12-05 23:33:0343.5067-3.78271664315Clb=3.1m/s Type=RS41-SG meteocampoo.es - http://radiosondy.info
EA1JAY-16S50101822022-12-05 23:32:5743.5066-3.78271474306Clb=3.2m/s t=-10.7C h=91.6% 401.500MHz Type=RS41-SG rdzTTGOsonde
EA1JAY-16S50101822022-12-05 23:32:2943.5064-3.782531264244Clb=3.2m/s t=-10.4C h=91.1% 401.500MHz Type=RS41-SG rdzTTGOsonde
EA1EF-14S50101822022-12-05 23:32:1243.5063-3.7822629344201Clb=2.7m/s Type=RS41 meteocampoo.es - http://radiosondy.info
EA1JAY-16S50101822022-12-05 23:32:0343.5063-3.7821729844181Clb=4.0m/s t=-9.9C h=90.9% 401.500MHz Type=RS41-SG rdzTTGOsonde
EA1EF-14S50101822022-12-05 23:31:5443.5062-3.7820832364150Clb=2.8m/s Type=RS41 meteocampoo.es - http://radiosondy.info
EA1JAY-16S50101822022-12-05 23:31:4243.5061-3.7820135074114Clb=3.0m/s t=-9.4C h=89.9% 401.500MHz Type=RS41-SG rdzTTGOsonde
EA1JAY-16S50101822022-12-05 23:31:2143.506-3.7819632774044Clb=3.2m/s t=-9.0C h=92.4% 401.500MHz Type=RS41-SG rdzTTGOsonde
EA1JAY-16S50101822022-12-05 23:31:0043.5057-3.7817335463976Clb=3.4m/s t=-8.4C h=90.3% 401.500MHz Type=RS41-SG rdzTTGOsonde
EA1JAY-16S50101822022-12-05 23:30:4043.5054-3.78163563910Clb=3.4m/s t=-8.0C h=88.7% 401.500MHz Type=RS41-SG rdzTTGOsonde
EA1JAY-16S50101822022-12-05 23:30:1943.5051-3.781651093841Clb=3.2m/s t=-7.5C h=91.2% 401.500MHz Type=RS41-SG rdzTTGOsonde
EA1JAY-16S50101822022-12-05 23:29:5843.5048-3.78161973759Clb=4.0m/s t=-6.8C h=87.4% 401.500MHz Type=RS41-SG rdzTTGOsonde
EA1JAY-16S50101822022-12-05 23:29:3843.5044-3.78164893693Clb=3.3m/s t=-6.4C h=87.2% 401.500MHz Type=RS41-SG rdzTTGOsonde
EA1JAY-16S50101822022-12-05 23:29:1743.5039-3.781691493621Clb=4.3m/s t=-6.0C h=89.1% 401.500MHz Type=RS41-SG rdzTTGOsonde
EA1JAY-16S50101822022-12-05 23:29:0943.5035-3.7816535163553Clb=3.2m/s t=-5.5C h=86.4% 401.500MHz Type=RS41-SG rdzTTGOsonde
EA1JAY-16S50101822022-12-05 23:28:4543.5031-3.78155673482Clb=3.7m/s t=-4.9C h=84.7% 401.500MHz Type=RS41-SG rdzTTGOsonde
EA1JAY-16S50101822022-12-05 23:28:2143.5027-3.78153347113412Clb=4.2m/s t=-4.4C h=84.1% 401.500MHz Type=RS41-SG rdzTTGOsonde
EA1JAY-16S50101822022-12-05 23:27:5543.5022-3.7813337113318Clb=2.9m/s t=-4.0C h=90.1% 401.500MHz Type=RS41-SG rdzTTGOsonde
EA1JAY-16S50101822022-12-05 23:27:3443.5018-3.781665773239Clb=4.6m/s t=-4.1C h=94.8% 401.500MHz Type=RS41-SG rdzTTGOsonde
EA1JAY-16S50101822022-12-05 23:27:1443.5018-3.78201135133167Clb=6.3m/s t=-3.8C h=95.2% 401.500MHz Type=RS41-SG rdzTTGOsonde
EA1JAY-16S50101822022-12-05 23:26:5443.5016-3.78222336133078Clb=5.1m/s t=-3.1C h=93.1% 401.500MHz Type=RS41-SG rdzTTGOsonde
EA1JAY-16S50101822022-12-05 23:26:1243.5017-3.782528242905Clb=3.6m/s t=-2.0C h=91.1% 401.500MHz Type=RS41-SG rdzTTGOsonde
EA1JAY-16S50101822022-12-05 23:25:5243.5017-3.7826211142845Clb=3.6m/s t=-1.8C h=94.1% 401.500MHz Type=RS41-SG rdzTTGOsonde
EA1JAY-16S50101822022-12-05 23:25:3143.5017-3.78272142774Clb=4.7m/s t=-1.3C h=90.9% 401.500MHz Type=RS41-SG rdzTTGOsonde
EA1JAY-16S50101822022-12-05 23:25:1143.5016-3.7829232112698Clb=7.5m/s t=-0.6C h=88.3% 401.500MHz Type=RS41-SG rdzTTGOsonde
EA1JAY-16S50101822022-12-05 23:24:5643.5016-3.7831713772598Clb=3.3m/s t=0.0C h=87.0% 401.500MHz Type=RS41-SG rdzTTGOsonde
EA1JAY-16S50101822022-12-05 23:24:3643.5017-3.7834810842538Clb=2.7m/s t=0.5C h=85.6% 401.500MHz Type=RS41-SG rdzTTGOsonde
EA1JAY-16S50101822022-12-05 23:24:1143.5018-3.783859462476Clb=3.5m/s t=0.9C h=84.5% 401.500MHz Type=RS41-SG rdzTTGOsonde
EA1JAY-16S50101822022-12-05 23:23:4943.5019-3.784158242409Clb=4.1m/s t=1.3C h=83.9% 401.500MHz Type=RS41-SG rdzTTGOsonde
EA1JAY-16S50101822022-12-05 23:23:2943.5019-3.784499572347Clb=3.2m/s t=1.8C h=83.7% 401.500MHz Type=RS41-SG rdzTTGOsonde
EA1JAY-16S50101822022-12-05 23:23:1043.5018-3.785154942257Clb=6.5m/s t=2.0C h=88.3% 401.500MHz Type=RS41-SG rdzTTGOsonde
EA1JAY-16S50101822022-12-05 23:22:2843.5017-3.785695072069Clb=3.3m/s t=2.9C h=87.1% 401.500MHz Type=RS41-SG rdzTTGOsonde
EA1JAY-16S50101822022-12-05 23:22:0743.5017-3.785925541998Clb=3.9m/s t=3.4C h=84.5% 401.500MHz Type=RS41-SG rdzTTGOsonde
EA1JAY-16S50101822022-12-05 23:21:4643.5014-3.7860318151893Clb=4.9m/s t=3.6C h=83.8% 401.500MHz Type=RS41-SG rdzTTGOsonde
EA1JAY-16S50101822022-12-05 23:21:2643.5008-3.786343191805Clb=6.0m/s t=4.3C h=80.9% 401.500MHz Type=RS41-SG rdzTTGOsonde
EA1JAY-16S50101822022-12-05 23:21:0643.5007-3.7867413161719Clb=4.0m/s t=4.6C h=77.7% 401.500MHz Type=RS41-SG rdzTTGOsonde
EA1JAY-16S50101822022-12-05 23:20:4643.5009-3.7870617071652Clb=3.3m/s t=5.0C h=77.2% 401.500MHz Type=RS41-SG rdzTTGOsonde
EA1JAY-16S50101822022-12-05 23:20:2543.5011-3.7873911571584Clb=2.7m/s t=5.4C h=69.6% 401.500MHz Type=RS41-SG rdzTTGOsonde
EA1JAY-16S50101822022-12-05 23:20:0343.5014-3.7876414171518Clb=2.5m/s t=5.7C h=75.2% 401.500MHz Type=RS41-SG rdzTTGOsonde
EA1JAY-16S50101822022-12-05 23:19:4343.5014-3.788049671455Clb=3.9m/s 401.500MHz Type=RS41-SG rdzTTGOsonde
EA1JAY-16S50101822022-12-05 23:19:2243.5015-3.788715891372Clb=5.6m/s 401.500MHz Type=RS41 rdzTTGOsonde
EA1JAY-16S50101822022-12-05 23:19:0243.5015-3.7893465171291Clb=4.8m/s 401.500MHz Type=RS41 rdzTTGOsonde
EA1JAY-16S50101822022-12-05 23:18:3943.5013-3.7901112131181Clb=4.8m/s 401.500MHz Type=RS41 rdzTTGOsonde